Flight Track Log - Related Links

Times and Time Zones

All times are in EDT time to prevent confusion due to time zone crossing. See the DAL268 flight status page for this flight to view local times or setup timezone preferences in your user account.

Time Position Orientation Groundspeed Altitude Reporting Facility
EDT Latitude Longitude Course Direction KTS MPH feet Rate Location/Type
Sat 11:59:47 PM 40.6450 -73.7680 180° South 70 81  Level FlightAware ADS-B
Sun 12:00:07 AM 40.6360 -73.7750 211° Southwest 140 161 732 Level FlightAware ADS-B
Sun 12:00:28 AM 40.6220 -73.7860 211° Southwest 174 200 500 1,773 Climbing FlightAware ADS-B
Sun 12:00:51 AM 40.6060 -73.7970 208° Southwest 174 200 1,300 2,057 Climbing FlightAware ADS-B
Sun 12:01:03 AM 40.5970 -73.8030 207° Southwest 178 205 1,700 1,313 Climbing FlightAware ADS-B
Sun 12:01:23 AM 40.5820 -73.8130 207° Southwest 198 228 2,000 833 Climbing FlightAware ADS-B
Sun 12:01:39 AM 40.5670 -73.8210 202° Southwest 226 260 2,200 750 Climbing FlightAware ADS-B
Sun 12:01:47 AM 40.5590 -73.8220 185° South 238 274 2,300 643 Climbing FlightAware ADS-B
Sun 12:02:07 AM 40.5390 -73.8150 165° South 264 304 2,500 960 Climbing FlightAware ADS-B
Sun 12:02:12 AM 40.5320 -73.8080 143° Southeast 275 316 2,700 857 Climbing FlightAware ADS-B
Sun 12:02:28 AM 40.5200 -73.7900 131° Southeast 292 336 2,800 783 Climbing FlightAware ADS-B
Sun 12:02:35 AM 40.5160 -73.7760 111° Southeast 305 351 3,000 1,385 Climbing FlightAware ADS-B
Sun 12:02:41 AM 40.5140 -73.7670 106° East 308 354 3,100 2,182 Climbing FlightAware ADS-B
Sun 12:02:57 AM 40.5110 -73.7340 97° East 309 356 3,800 2,053 Climbing FlightAware ADS-B
Sun 12:03:19 AM 40.5160 -73.6890 82° East 327 376 4,400 2,372 Climbing FlightAware ADS-B
Sun 12:03:40 AM 40.5230 -73.6500 77° East 318 366 5,500 2,341 Climbing FlightAware ADS-B
Sun 12:04:00 AM 40.5300 -73.6110 77° East 330 380 6,000 1,846 Climbing FlightAware ADS-B
Sun 12:04:19 AM 40.5380 -73.5740 74° East 333 383 6,700 2,057 Climbing FlightAware ADS-B
Sun 12:04:35 AM 40.5410 -73.5410 83° East 335 386 7,200 2,000 Climbing FlightAware ADS-B
Sun 12:04:55 AM 40.5370 -73.5010 97° East 331 381 7,900 2,049 Climbing FlightAware ADS-B
Sun 12:05:16 AM 40.5260 -73.4600 109° East 326 375 8,600 1,800 Climbing FlightAware ADS-B
Sun 12:05:35 AM 40.5150 -73.4260 113° Southeast 335 386 9,100 1,953 Climbing FlightAware ADS-B
Sun 12:05:59 AM 40.5020 -73.3800 110° East 338 389 10,000 1,684 Climbing FlightAware ADS-B
Sun 12:06:32 AM 40.4840 -73.3130 109° East 355 409 10,700 882 Climbing FlightAware ADS-B
Sun 12:07:07 AM 40.4620 -73.2400 112° Southeast 390 449 11,000 800 Climbing FlightAware ADS-B
Sun 12:07:32 AM 40.4456 -73.1821 110° East 401 461 11,500 1,029 Climbing FlightAware ADS-B (KSNC)
Sun 12:08:17 AM 40.4140 -73.0750 111° Southeast 438 504 12,200 1,350 Climbing FlightAware ADS-B
Sun 12:08:52 AM 40.3940 -72.9840 106° East 461 531 13,300 1,821 Climbing FlightAware ADS-B
Sun 12:09:13 AM 40.3951 -72.9229 89° East 480 552 13,900 1,647 Climbing FlightAware ADS-B (KSNC)
Sun 12:09:43 AM 40.4078 -72.8344 79° East 492 566 14,700 1,826 Climbing FlightAware ADS-B (KSNC)
Sun 12:10:22 AM 40.4254 -72.7198 79° East 502 578 16,000 1,944 Climbing FlightAware ADS-B (KSNC)
Sun 12:10:54 AM 40.4399 -72.6238 79° East 508 585 17,000 1,905 Climbing FlightAware ADS-B (KSNC)
Sun 12:11:25 AM 40.4535 -72.5309 79° East 512 589 18,000 1,579 Climbing FlightAware ADS-B (KSNC)
Sun 12:12:29 AM 40.4800 -72.3450 79° East 528 608 19,500 1,314 Climbing FlightAware ADS-B
Sun 12:13:10 AM 40.4990 -72.2120 79° East 543 625 20,300 1,215 Climbing FlightAware ADS-B
Sun 12:13:48 AM 40.4930 -72.2563 260° West 539 620 21,100 1,217 Climbing FlightAware ADS-B (KSNC)
Sun 12:14:19 AM 40.5210 -72.0550 80° East 557 641 21,700 1,371 Climbing FlightAware ADS-B
Sun 12:14:58 AM 40.5510 -71.8430 79° East 569 655 22,700 1,500 Climbing FlightAware ADS-B
Sun 12:15:31 AM 40.5670 -71.7270 80° East 572 658 23,500 1,304 Climbing FlightAware ADS-B
Sun 12:16:07 AM 40.5840 -71.6020 80° East 581 669 24,200 1,315 Climbing FlightAware ADS-B
Sun 12:16:44 AM 40.6020 -71.4740 79° East 583 671 25,100 1,324 Climbing FlightAware ADS-B
Sun 12:17:15 AM 40.6160 -71.3670 80° East 585 673 25,700 1,075 Climbing FlightAware ADS-B
Sun 12:17:51 AM 40.6330 -71.2420 80° East 592 681 26,300 1,151 Climbing FlightAware ADS-B
Sun 12:18:28 AM 40.6510 -71.1040 80° East 595 685 27,100 1,268 Climbing FlightAware ADS-B
Sun 12:19:02 AM 40.6670 -70.9850 80° East 596 686 27,800 1,075 Climbing FlightAware ADS-B
Sun 12:19:35 AM 40.6830 -70.8650 80° East 598 688 28,300 1,182 Climbing FlightAware ADS-B
Sun 12:20:08 AM 40.6980 -70.7490 80° East 596 686 29,100 686 Climbing FlightAware ADS-B
Sun 12:20:45 AM 40.7130 -70.6360 80° East 596 686 29,100  Level FlightAware ADS-B
Sun 12:21:22 AM 40.7280 -70.5230 80° East 596 686 29,100  Level FlightAware ADS-B
Sun 12:21:58 AM 40.7420 -70.4140 80° East 596 686 29,100  Level FlightAware ADS-B
Sun 12:22:34 AM 40.7570 -70.3040 80° East 596 686 29,100  Level FlightAware ADS-B
Sun 12:23:10 AM 40.7720 -70.1940 80° East 596 686 29,100  Level FlightAware ADS-B
Sun 12:23:46 AM 40.7860 -70.0850 80° East 596 686 29,100 1,253 Level FlightAware ADS-B
Sun 12:24:41 AM 40.8131 -69.8014 80° East 601 692 31,000 991 Climbing New York Center
Sun 12:25:41 AM 40.8383 -69.5872 81° East 601 692 31,000  Level New York Center
Sun 12:26:41 AM 40.8653 -69.3700 81° East 601 692 31,000 250 Level New York Center
Sun 12:27:41 AM 40.8875 -69.1500 82° East 601 692 31,500 500 Climbing New York Center
Sun 12:28:41 AM 40.9117 -68.9300 82° East 601 692 32,000 72 Climbing New York Center
Sun 12:30:00 AM 40.9387 -68.6750 82° East  Level FlightAware Approximate
Sun 12:35:59 AM 41.0898 -67.2814 82° East 610 702 32,100  Level FlightAware ADS-B (EGHI / SOU)
Sun 12:36:53 AM 41.1091 -67.0825 83° East 607 699 32,000 -67 Descending FlightAware ADS-B (EGHI / SOU)
Sun 12:37:28 AM 41.1167 -67.0000 78° East 608 700 32,000  Level New York Oceanic (ODAPS)
Sun 12:39:00 AM 41.2399 -66.7204 60° Northeast  Level FlightAware Approximate
Sun 12:39:02 AM 41.1762 -66.6201 60° Northeast 610 702 32,000  Level FlightAware ADS-B (EGHI / SOU)
Sun 12:40:33 AM 41.2290 -66.2785 78° East 609 701 32,100 49 Climbing FlightAware ADS-B (EGHI / SOU)
Sun 12:41:05 AM 41.2468 -66.1608 79° East 609 701 32,100 -92 Level FlightAware ADS-B (EGHI / SOU)
Sun 12:41:38 AM 41.2633 -66.0507 79° East 608 700 32,000  Descending FlightAware ADS-B (EGHI / SOU)
Sun 12:42:12 AM 41.2828 -65.9193 79° East 607 699 32,100  Climbing FlightAware ADS-B (EGHI / SOU)
Sun 12:43:00 AM 41.3144 -65.7027 79° East 608 700 32,000 -85 Descending FlightAware Transoceanic
Sun 12:43:23 AM 41.3219 -65.6540 79° East 610 702 32,000 85 Level FlightAware ADS-B (EGHI / SOU)
Sun 12:44:11 AM 41.3474 -65.4783 79° East 611 703 32,100 26 Climbing FlightAware ADS-B (EGHI / SOU)
Sun 12:46:00 AM 41.4850 -65.1701 59° Northeast  Level Estimated
Sun 12:47:00 AM 41.5603 -65.0000 59° Northeast  Level Estimated
Sun 12:47:17 AM 41.4426 -64.8032 59° Northeast 610 702 32,100  Level FlightAware ADS-B (EGHI / SOU)
Sun 12:48:14 AM 41.4727 -64.5831 80° East 608 700 32,000 -17 Descending FlightAware ADS-B (EGHI / SOU)
Sun 12:50:00 AM 41.6044 -64.2812 60° Northeast  Level Estimated
Sun 12:51:00 AM 41.6786 -64.1098 60° Northeast  Level Estimated
Sun 12:52:00 AM 41.7525 -63.9380 60° Northeast  Level Estimated
Sun 12:53:00 AM 41.8262 -63.7658 60° Northeast  Level Estimated
Sun 12:53:12 AM 41.6167 -63.5167 81° East 606 697 32,000  Level New York Oceanic (ODAPS)
Sun 12:54:00 AM 41.8996 -63.5932 60° Northeast  Level Estimated
Sun 12:55:00 AM 41.9728 -63.4202 60° Northeast  Level Estimated
Sun 12:56:00 AM 42.0457 -63.2468 60° Northeast  Level Estimated
Sun 12:57:00 AM 42.1183 -63.0730 61° Northeast  Level Estimated
Sun 12:58:00 AM 42.1907 -62.8988 61° Northeast  Level Estimated
Sun 12:59:00 AM 41.7730 -62.2029 81° East 606 697 32,000  Level FlightAware Transoceanic
Sun 01:00:00 AM 41.7976 -61.9833 82° East 606 697 32,000  Level FlightAware Transoceanic
Sun 01:01:00 AM 41.8217 -61.7636 82° East 606 697 32,000  Level FlightAware Transoceanic
Sun 01:02:00 AM 41.8455 -61.5437 82° East 606 697 32,000  Level FlightAware Transoceanic
Sun 01:03:00 AM 41.8688 -61.3236 82° East 606 697 32,000  Level FlightAware Transoceanic
Sun 01:04:00 AM 41.8918 -61.1034 82° East 606 697 32,000  Level FlightAware Transoceanic
Sun 01:05:00 AM 41.9142 -60.8830 82° East 606 697 32,000  Level FlightAware Transoceanic
Sun 01:06:00 AM 41.9363 -60.6625 82° East 606 697 32,000  Level FlightAware Transoceanic
Sun 01:07:00 AM 41.9580 -60.4418 83° East 606 697 32,000  Level FlightAware Transoceanic
Sun 01:08:00 AM 41.9792 -60.2210 83° East 606 697 32,000  Level FlightAware Transoceanic
Sun 01:09:00 AM 42.0000 -60.0000 71° East 606 697 32,000  Level FlightAware Transoceanic
Sun 01:09:02 AM 42.0000 -60.0000 71° East 605 696 32,000  Level New York Oceanic (ODAPS)
Sun 01:10:00 AM 42.0525 -59.7898 71° East 606 697 32,000  Level FlightAware Transoceanic
Sun 01:11:00 AM 42.1047 -59.5794 72° East 606 697 32,000  Level FlightAware Transoceanic
Sun 01:12:00 AM 42.1565 -59.3685 72° East 606 697 32,000  Level FlightAware Transoceanic
Sun 01:13:00 AM 42.2079 -59.1573 72° East 606 697 32,000  Level FlightAware Transoceanic
Sun 01:13:38 AM 42.2333 -59.0167 72° East 604 695 32,000  Level New York Oceanic (ODAPS)
Sun 01:14:00 AM 42.2589 -58.9458 72° East 606 697 32,000  Level FlightAware Transoceanic
Sun 01:15:00 AM 42.3162 -58.7057 72° East 605 696 32,000  Level FlightAware Transoceanic
Sun 01:16:00 AM 42.3674 -58.4887 72° East 605 696 32,000  Level FlightAware Transoceanic
Sun 01:17:00 AM 42.4183 -58.2714 72° East 605 696 32,000  Level FlightAware Transoceanic
Sun 01:18:00 AM 42.4688 -58.0537 73° East 605 696 32,000  Level FlightAware Transoceanic
Sun 01:19:00 AM 42.5355 -57.7308 73° East 604 695 32,000  Level FlightAware Transoceanic
Sun 01:20:00 AM 42.5844 -57.5153 73° East 604 695 32,000  Level FlightAware Transoceanic
Sun 01:21:00 AM 42.6330 -57.2994 73° East 604 695 32,000  Level FlightAware Transoceanic
Sun 01:22:00 AM 42.6811 -57.0832 73° East 604 695 32,000  Level FlightAware Transoceanic
Sun 01:23:00 AM 42.7289 -56.8667 73° East 604 695 32,000  Level FlightAware Transoceanic
Sun 01:24:00 AM 42.7762 -56.6498 74° East 604 695 32,000  Level FlightAware Transoceanic
Sun 01:25:00 AM 42.8231 -56.4327 74° East 604 695 32,000  Level FlightAware Transoceanic
Sun 01:26:00 AM 42.8697 -56.2152 74° East 604 695 32,000  Level FlightAware Transoceanic
Sun 01:27:00 AM 42.9157 -55.9973 74° East 604 695 32,000  Level FlightAware Transoceanic
Sun 01:28:00 AM 42.9614 -55.7792 74° East 604 695 32,000  Level FlightAware Transoceanic
Sun 01:29:00 AM 43.0067 -55.5607 74° East 604 695 32,000  Level FlightAware Transoceanic
Sun 01:30:00 AM 43.0516 -55.3419 74° East 604 695 32,000  Level FlightAware Transoceanic
Sun 01:31:00 AM 43.0960 -55.1227 75° East 604 695 32,000  Level FlightAware Transoceanic
Sun 01:32:00 AM 43.1400 -54.9033 75° East 604 695 32,000  Level FlightAware Transoceanic
Sun 01:33:00 AM 43.1836 -54.6836 75° East 604 695 32,000  Level FlightAware Transoceanic
Sun 01:33:55 AM 43.2000 -54.6500 75° East 597 687 32,000  Level New York Oceanic (ODAPS)
Sun 01:34:00 AM 43.2268 -54.4635 75° East 604 695 32,000  Level FlightAware Transoceanic
Sun 01:35:00 AM 43.2695 -54.2431 75° East 604 695 32,000  Level FlightAware Transoceanic
Sun 01:36:00 AM 43.3119 -54.0224 75° East 604 695 32,000  Level FlightAware Transoceanic
Sun 01:37:00 AM 43.3538 -53.8014 75° East 604 695 32,000  Level FlightAware Transoceanic
Sun 01:38:00 AM 43.3952 -53.5801 76° East 604 695 32,000  Level FlightAware Transoceanic
Sun 01:39:00 AM 43.4363 -53.3585 76° East 604 695 32,000  Level FlightAware Transoceanic
Sun 01:40:00 AM 43.4597 -53.2682 76° East 597 687 32,000  Level FlightAware Transoceanic
Sun 01:41:00 AM 43.5014 -53.0367 76° East 597 687 32,000  Level FlightAware Transoceanic
Sun 01:42:00 AM 43.5426 -52.8049 76° East 597 687 32,000  Level FlightAware Transoceanic
Sun 01:43:00 AM 43.5833 -52.5729 76° East 597 687 32,000  Level FlightAware Transoceanic
Sun 01:44:00 AM 43.6236 -52.3405 77° East 597 687 32,000  Level FlightAware Transoceanic
Sun 01:45:00 AM 43.6633 -52.1078 77° East 597 687 32,000  Level FlightAware Transoceanic
Sun 01:46:00 AM 43.7027 -51.8748 77° East 597 687 32,000  Level FlightAware Transoceanic
Sun 01:47:00 AM 43.7415 -51.6414 77° East 597 687 32,000  Level FlightAware Transoceanic
Sun 01:48:00 AM 43.7799 -51.4078 77° East 597 687 32,000  Level FlightAware Transoceanic
Sun 01:49:00 AM 43.8177 -51.1739 77° East 597 687 32,000  Level FlightAware Transoceanic
Sun 01:50:00 AM 43.8552 -50.9397 78° East 597 687 32,000  Level FlightAware Transoceanic
Sun 01:51:00 AM 43.8921 -50.7052 78° East 597 687 32,000  Level FlightAware Transoceanic
Sun 01:52:00 AM 43.9285 -50.4704 78° East 597 687 32,000  Level FlightAware Transoceanic
Sun 01:53:00 AM 43.9645 -50.2354 78° East 597 687 32,000  Level FlightAware Transoceanic
Sun 01:54:00 AM 44.0000 -50.0000 71° East 597 687 32,000  Level FlightAware Transoceanic
Sun 01:54:10 AM 43.9833 -50.1500 81° East 687 791 32,000  Level New York Oceanic (ODAPS)
Sun 01:55:00 AM 44.0514 -49.7948 71° East 597 687 32,000  Level FlightAware Transoceanic
Sun 01:55:10 AM 44.0000 -50.0000 71° East 589 678 32,000  Level New York Oceanic (ODAPS)
Sun 01:56:00 AM 44.1025 -49.5893 71° East 597 687 32,000  Level FlightAware Transoceanic
Sun 01:57:00 AM 44.1532 -49.3834 71° East 597 687 32,000  Level FlightAware Transoceanic
Sun 01:58:00 AM 44.2035 -49.1772 71° East 597 687 32,000  Level FlightAware Transoceanic
Sun 01:59:00 AM 44.2535 -48.9706 71° East 597 687 32,000  Level FlightAware Transoceanic
Sun 02:00:00 AM 44.3095 -48.7367 72° East 687 791 32,000  Level FlightAware Transoceanic
Sun 02:01:00 AM 44.3233 -48.6790 72° East 589 678 32,000  Level FlightAware Transoceanic
Sun 02:02:00 AM 44.3757 -48.4574 72° East 589 678 32,000  Level FlightAware Transoceanic
Sun 02:03:00 AM 44.4276 -48.2354 72° East 589 678 32,000  Level FlightAware Transoceanic
Sun 02:04:00 AM 44.4792 -48.0131 72° East 589 678 32,000  Level FlightAware Transoceanic
Sun 02:05:00 AM 44.5303 -47.7903 72° East 589 678 32,000  Level FlightAware Transoceanic
Sun 02:06:00 AM 44.5809 -47.5672 72° East 589 678 32,000  Level FlightAware Transoceanic
Sun 02:07:00 AM 44.6311 -47.3436 73° East 589 678 32,000  Level FlightAware Transoceanic
Sun 02:08:00 AM 44.6810 -47.1197 73° East 589 678 32,000  Level FlightAware Transoceanic
Sun 02:09:00 AM 44.7303 -46.8954 73° East 589 678 32,000  Level FlightAware Transoceanic
Sun 02:10:00 AM 44.7792 -46.6707 73° East 589 678 32,000  Level FlightAware Transoceanic
Sun 02:11:00 AM 44.8277 -46.4457 73° East 589 678 32,000  Level FlightAware Transoceanic
Sun 02:12:00 AM 44.8757 -46.2203 73° East 589 678 32,000  Level FlightAware Transoceanic
Sun 02:13:00 AM 44.9233 -45.9944 74° East 589 678 32,000  Level FlightAware Transoceanic
Sun 02:14:00 AM 44.9705 -45.7683 74° East 589 678 32,000  Level FlightAware Transoceanic
Sun 02:15:00 AM 45.0172 -45.5417 74° East 589 678 32,000  Level FlightAware Transoceanic
Sun 02:16:00 AM 45.0634 -45.3148 74° East 589 678 32,000  Level FlightAware Transoceanic
Sun 02:17:00 AM 45.1092 -45.0875 74° East 589 678 32,000  Level FlightAware Transoceanic
Sun 02:18:00 AM 45.1545 -44.8599 74° East 589 678 32,000  Level FlightAware Transoceanic
Sun 02:19:00 AM 45.1994 -44.6318 74° East 589 678 32,000  Level FlightAware Transoceanic
Sun 02:20:00 AM 45.2439 -44.4035 75° East 589 678 32,000  Level FlightAware Transoceanic
Sun 02:21:00 AM 45.2878 -44.1747 75° East 589 678 32,000  Level FlightAware Transoceanic
Sun 02:22:00 AM 45.3314 -43.9457 75° East 589 678 32,000  Level FlightAware Transoceanic
Sun 02:23:00 AM 45.3744 -43.7162 75° East 589 678 32,000  Level FlightAware Transoceanic
Sun 02:24:00 AM 45.4170 -43.4865 75° East 589 678 32,000  Level FlightAware Transoceanic
Sun 02:25:00 AM 45.4592 -43.2563 75° East 589 678 32,000  Level FlightAware Transoceanic
Sun 02:26:00 AM 45.5009 -43.0259 76° East 589 678 32,000  Level FlightAware Transoceanic
Sun 02:27:00 AM 45.5421 -42.7951 76° East 589 678 32,000  Level FlightAware Transoceanic
Sun 02:28:00 AM 45.5828 -42.5639 76° East 589 678 32,000  Level FlightAware Transoceanic
Sun 02:29:00 AM 45.6231 -42.3325 76° East 589 678 32,000  Level FlightAware Transoceanic
Sun 02:30:00 AM 45.6629 -42.1006 76° East 589 678 32,000  Level FlightAware Transoceanic
Sun 02:31:00 AM 45.7023 -41.8685 76° East 589 678 32,000  Level FlightAware Transoceanic
Sun 02:32:00 AM 45.7411 -41.6361 77° East 589 678 32,000  Level FlightAware Transoceanic
Sun 02:33:00 AM 45.7796 -41.4033 77° East 589 678 32,000  Level FlightAware Transoceanic
Sun 02:34:00 AM 45.8175 -41.1702 77° East 589 678 32,000  Level FlightAware Transoceanic
Sun 02:35:00 AM 45.8549 -40.9368 77° East 589 678 32,000  Level FlightAware Transoceanic
Sun 02:36:00 AM 45.8919 -40.7030 77° East 589 678 32,000  Level FlightAware Transoceanic
Sun 02:37:00 AM 45.9284 -40.4690 77° East 589 678 32,000  Level FlightAware Transoceanic
Sun 02:38:00 AM 45.9645 -40.2346 78° East 589 678 32,000  Level FlightAware Transoceanic
Sun 02:39:00 AM 46.0000 -40.0000 78° East 589 678 32,000  Level FlightAware Transoceanic
Sun 02:40:00 AM 46.0309 -39.7870 78° East 589 678 32,000  Level FlightAware Transoceanic
Sun 02:41:00 AM 46.0614 -39.5738 78° East 589 678 32,000  Level FlightAware Transoceanic
Sun 02:42:00 AM 46.0915 -39.3603 79° East 589 678 32,000  Level FlightAware Transoceanic
Sun 02:43:00 AM 46.1212 -39.1466 79° East 589 678 32,000  Level FlightAware Transoceanic
Sun 02:44:00 AM 46.1505 -38.9327 79° East 589 678 32,000  Level FlightAware Transoceanic
Sun 02:45:00 AM 46.1794 -38.7186 79° East 589 678 32,000  Level FlightAware Transoceanic
Sun 02:46:00 AM 46.2080 -38.5042 79° East 589 678 32,000  Level FlightAware Transoceanic
Sun 02:47:00 AM 46.2361 -38.2896 79° East 589 678 32,000  Level FlightAware Transoceanic
Sun 02:48:00 AM 46.2638 -38.0748 80° East 589 678 32,000  Level FlightAware Transoceanic
Sun 02:49:00 AM 46.2911 -37.8598 80° East 589 678 32,000  Level FlightAware Transoceanic
Sun 02:50:00 AM 46.3180 -37.6445 80° East 589 678 32,000  Level FlightAware Transoceanic
Sun 02:51:00 AM 46.3445 -37.4291 80° East 589 678 32,000  Level FlightAware Transoceanic
Sun 02:52:00 AM 46.3706 -37.2134 80° East 589 678 32,000  Level FlightAware Transoceanic
Sun 02:53:00 AM 46.3963 -36.9976 80° East 589 678 32,000  Level FlightAware Transoceanic
Sun 02:54:00 AM 46.4215 -36.7815 80° East 589 678 32,000  Level FlightAware Transoceanic
Sun 02:55:00 AM 46.4464 -36.5653 81° East 589 678 32,000  Level FlightAware Transoceanic
Sun 02:56:00 AM 46.4709 -36.3488 81° East 589 678 32,000  Level FlightAware Transoceanic
Sun 02:57:00 AM 46.4949 -36.1321 81° East 589 678 32,000  Level FlightAware Transoceanic
Sun 02:58:00 AM 46.5186 -35.9153 81° East 589 678 32,000  Level FlightAware Transoceanic
Sun 02:59:00 AM 46.5418 -35.6983 81° East 589 678 32,000  Level FlightAware Transoceanic
Sun 03:00:00 AM 46.5646 -35.4811 81° East 589 678 32,000  Level FlightAware Transoceanic
Sun 03:01:00 AM 46.5871 -35.2637 82° East 589 678 32,000  Level FlightAware Transoceanic
Sun 03:02:00 AM 46.6091 -35.0461 82° East 589 678 32,000  Level FlightAware Transoceanic
Sun 03:03:00 AM 46.6306 -34.8284 82° East 589 678 32,000  Level FlightAware Transoceanic
Sun 03:04:00 AM 46.6518 -34.6104 82° East 589 678 32,000  Level FlightAware Transoceanic
Sun 03:05:00 AM 46.6726 -34.3923 82° East 589 678 32,000  Level FlightAware Transoceanic
Sun 03:05:00 AM 46.0000 -40.0000 78° East 543 625 32,000  Level ETMS Enhanced Traffic Management System
Sun 03:06:00 AM 46.6929 -34.1741 82° East 589 678 32,000  Level FlightAware Transoceanic
Sun 03:07:00 AM 46.7129 -33.9557 82° East 589 678 32,000  Level FlightAware Transoceanic
Sun 03:08:00 AM 46.7324 -33.7371 83° East 589 678 32,000  Level FlightAware Transoceanic
Sun 03:09:00 AM 46.7515 -33.5184 83° East 589 678 32,000  Level FlightAware Transoceanic
Sun 03:10:00 AM 46.7702 -33.2995 83° East 589 678 32,000  Level FlightAware Transoceanic
Sun 03:11:00 AM 46.7884 -33.0804 83° East 543 625 32,000  Level FlightAware Transoceanic
Sun 03:12:00 AM 46.8063 -32.8613 83° East 543 625 32,000  Level FlightAware Transoceanic
Sun 03:13:00 AM 46.8237 -32.6419 83° East 543 625 32,000  Level FlightAware Transoceanic
Sun 03:14:00 AM 46.8407 -32.4225 84° East 543 625 32,000  Level FlightAware Transoceanic
Sun 03:15:00 AM 46.8573 -32.2029 84° East 543 625 32,000  Level FlightAware Transoceanic
Sun 03:16:00 AM 46.8735 -31.9831 84° East 543 625 32,000  Level FlightAware Transoceanic
Sun 03:17:00 AM 46.8892 -31.7633 84° East 543 625 32,000  Level FlightAware Transoceanic
Sun 03:18:00 AM 46.9045 -31.5433 84° East 543 625 32,000  Level FlightAware Transoceanic
Sun 03:19:00 AM 46.9194 -31.3231 84° East 543 625 32,000  Level FlightAware Transoceanic
Sun 03:20:00 AM 46.9339 -31.1029 85° East 543 625 32,000  Level FlightAware Transoceanic
Sun 03:21:00 AM 46.9480 -30.8825 85° East 543 625 32,000  Level FlightAware Transoceanic
Sun 03:22:00 AM 46.9616 -30.6621 85° East 543 625 32,000  Level FlightAware Transoceanic
Sun 03:23:00 AM 46.9748 -30.4415 85° East 543 625 32,000  Level FlightAware Transoceanic
Sun 03:24:00 AM 46.9876 -30.2208 85° East 543 625 32,000 26 Level FlightAware Transoceanic
Sun 03:25:00 AM 47.0064 -30.0081 83° East  Level Estimated
Sun 03:26:00 AM 47.0247 -29.7953 83° East  Level Estimated
Sun 03:27:00 AM 47.0427 -29.5824 83° East  Level Estimated
Sun 03:28:00 AM 47.0602 -29.3701 83° East  Level Estimated
Sun 03:29:00 AM 47.0773 -29.1576 83° East  Level Estimated
Sun 03:30:00 AM 47.0941 -28.9450 83° East  Level Estimated
Sun 03:31:00 AM 47.1104 -28.7322 83° East  Level Estimated
Sun 03:32:00 AM 47.1263 -28.5193 84° East  Level Estimated
Sun 03:33:00 AM 47.1418 -28.3063 84° East  Level Estimated
Sun 03:34:00 AM 47.1570 -28.0932 84° East  Level Estimated
Sun 03:35:00 AM 47.1717 -27.8799 84° East  Level Estimated
Sun 03:36:00 AM 47.1861 -27.6666 84° East  Level Estimated
Sun 03:37:00 AM 47.2001 -27.4531 84° East  Level Estimated
Sun 03:38:00 AM 47.2136 -27.2395 85° East  Level Estimated
Sun 03:39:00 AM 47.2268 -27.0258 85° East  Level Estimated
Sun 03:40:00 AM 47.2395 -26.8120 85° East  Level Estimated
Sun 03:41:00 AM 47.2519 -26.5981 85° East  Level Estimated
Sun 03:42:00 AM 47.2639 -26.3841 85° East  Level Estimated
Sun 03:43:00 AM 47.2755 -26.1700 85° East  Level Estimated
Sun 03:44:00 AM 47.2866 -25.9559 86° East  Level Estimated
Sun 03:45:00 AM 47.2974 -25.7416 86° East  Level Estimated
Sun 03:46:00 AM 47.3078 -25.5272 86° East  Level Estimated
Sun 03:47:00 AM 47.3177 -25.3128 86° East  Level Estimated
Sun 03:48:00 AM 47.3273 -25.0982 86° East  Level Estimated
Sun 03:49:00 AM 47.3365 -24.8836 86° East  Level Estimated
Sun 03:50:00 AM 47.3452 -24.6690 86° East  Level Estimated
Sun 03:51:00 AM 47.3536 -24.4542 87° East  Level Estimated
Sun 03:52:00 AM 47.3616 -24.2394 87° East  Level Estimated
Sun 03:53:00 AM 47.3691 -24.0246 87° East  Level Estimated
Sun 03:54:00 AM 47.3763 -23.8096 87° East  Level Estimated
Sun 03:55:00 AM 47.3831 -23.5946 87° East  Level Estimated
Sun 03:56:00 AM 47.3895 -23.3796 87° East  Level Estimated
Sun 03:57:00 AM 47.3954 -23.1645 88° East  Level Estimated
Sun 03:58:00 AM 47.4010 -22.9494 88° East  Level Estimated
Sun 03:59:00 AM 47.4061 -22.7342 88° East  Level Estimated
Sun 04:00:00 AM 47.4109 -22.5190 88° East  Level Estimated
Sun 04:01:00 AM 47.4152 -22.3037 88° East  Level Estimated
Sun 04:02:00 AM 47.4192 -22.0884 88° East  Level Estimated
Sun 04:03:00 AM 47.4227 -21.8731 89° East  Level Estimated
Sun 04:04:00 AM 47.4259 -21.6577 89° East  Level Estimated
Sun 04:05:00 AM 47.4286 -21.4424 89° East  Level Estimated
Sun 04:06:00 AM 47.4309 -21.2270 89° East  Level Estimated
Sun 04:07:00 AM 47.4329 -21.0116 89° East  Level Estimated
Sun 04:08:00 AM 47.4344 -20.7961 89° East  Level Estimated
Sun 04:09:00 AM 47.4355 -20.5807 89° East  Level Estimated
Sun 04:10:00 AM 47.4362 -20.3652 90° East  Level Estimated
Sun 04:11:00 AM 47.4366 -20.1498 90° East  Level Estimated
Sun 04:12:00 AM 47.4365 -19.9343 90° East  Level Estimated
Sun 04:13:00 AM 47.4360 -19.7189 90° East  Level Estimated
Sun 04:14:00 AM 47.4351 -19.5035 90° East  Level Estimated
Sun 04:15:00 AM 47.4338 -19.2880 90° East  Level Estimated
Sun 04:16:00 AM 47.4321 -19.0726 91° East  Level Estimated
Sun 04:17:00 AM 47.4300 -18.8587 91° East  Level Estimated
Sun 04:18:00 AM 47.4275 -18.6448 91° East  Level Estimated
Sun 04:19:00 AM 47.4246 -18.4309 91° East  Level Estimated
Sun 04:20:00 AM 47.4213 -18.2170 91° East  Level Estimated
Sun 04:21:00 AM 47.4177 -18.0032 91° East  Level Estimated
Sun 04:22:00 AM 47.4136 -17.7894 92° East  Level Estimated
Sun 04:23:00 AM 47.4091 -17.5757 92° East  Level Estimated
Sun 04:24:00 AM 47.4042 -17.3619 92° East  Level Estimated
Sun 04:25:00 AM 47.3990 -17.1483 92° East  Level Estimated
Sun 04:26:00 AM 47.3933 -16.9346 92° East  Level Estimated
Sun 04:27:00 AM 47.3872 -16.7210 92° East  Level Estimated
Sun 04:28:00 AM 47.3808 -16.5075 92° East  Level Estimated
Sun 04:29:00 AM 47.3739 -16.2940 93° East  Level Estimated
Sun 04:30:00 AM 47.3667 -16.0806 93° East  Level Estimated
Sun 04:31:00 AM 47.3590 -15.8672 93° East  Level Estimated
Sun 04:32:00 AM 47.3510 -15.6539 93° East  Level Estimated
Sun 04:33:00 AM 47.3425 -15.4407 93° East  Level Estimated
Sun 04:34:00 AM 47.3337 -15.2275 93° East  Level Estimated
Sun 04:35:00 AM 47.3244 -15.0129 94° East  Level Estimated
Sun 04:36:00 AM 47.3147 -14.7984 94° East  Level Estimated
Sun 04:37:00 AM 47.3046 -14.5840 94° East  Level Estimated
Sun 04:38:00 AM 47.2941 -14.3697 94° East  Level Estimated
Sun 04:39:00 AM 47.2832 -14.1554 94° East  Level Estimated
Sun 04:40:00 AM 47.2719 -13.9413 94° East  Level Estimated
Sun 04:41:00 AM 47.2602 -13.7272 95° East  Level Estimated
Sun 04:42:00 AM 47.2481 -13.5132 95° East  Level Estimated
Sun 04:43:00 AM 47.2356 -13.2993 95° East  Level Estimated
Sun 04:44:00 AM 47.2228 -13.0856 95° East  Level Estimated
Sun 04:45:00 AM 47.2095 -12.8719 95° East  Level Estimated
Sun 04:46:00 AM 47.1958 -12.6584 95° East  Level Estimated
Sun 04:47:00 AM 47.1817 -12.4449 95° East  Level Estimated
Sun 04:48:00 AM 47.1673 -12.2316 96° East  Level Estimated
Sun 04:49:00 AM 47.1524 -12.0180 96° East  Level Estimated
Sun 04:50:00 AM 47.1371 -11.8046 96° East  Level Estimated
Sun 04:51:00 AM 47.1214 -11.5912 96° East  Level Estimated
Sun 04:52:00 AM 47.1053 -11.3780 96° East  Level Estimated
Sun 04:53:00 AM 47.0888 -11.1649 96° East  Level Estimated
Sun 04:54:00 AM 47.0719 -10.9520 97° East  Level Estimated
Sun 04:55:00 AM 47.0546 -10.7392 97° East  Level Estimated
Sun 04:56:00 AM 47.0370 -10.5265 97° East  Level Estimated
Sun 04:57:00 AM 47.0189 -10.3140 97° East  Level Estimated
Sun 04:58:00 AM 47.0005 -10.1016 97° East  Level Estimated
Sun 04:59:00 AM 46.9816 -9.8894 97° East  Level Estimated
Sun 04:59:10 AM 49.1410 -9.2060 97° East 551 634 34,500  Level FlightAware ADS-B
Sun 04:59:46 AM 49.1220 -9.0700 102° East 553 636 35,000 500 Climbing FlightAware ADS-B
Sun 05:00:22 AM 49.1030 -8.9330 102° East 557 641 35,100 82 Climbing FlightAware ADS-B
Sun 05:00:59 AM 49.0830 -8.7880 102° East 555 639 35,100 -88 Level FlightAware ADS-B
Sun 05:01:30 AM 49.0670 -8.6750 102° East 553 636 35,000 -94 Descending FlightAware ADS-B
Sun 05:02:03 AM 49.0490 -8.5520 102° East 553 636 35,000  Level FlightAware ADS-B
Sun 05:02:08 AM 49.0437 -8.5194 102° East 494 568 35,000  Level FlightAware UK
Sun 05:02:38 AM 49.0270 -8.4056 102° East 494 568 35,000 171 Level FlightAware UK
Sun 05:02:43 AM 49.0270 -8.3980 102° East 553 636 35,100  Climbing FlightAware ADS-B
Sun 05:03:18 AM 49.0060 -8.2590 103° East 553 636 35,000  Descending FlightAware ADS-B
Sun 05:03:59 AM 48.9830 -8.1050 103° East 554 638 35,100 79 Climbing FlightAware ADS-B
Sun 05:04:34 AM 48.9640 -7.9740 102° East 555 639 35,100 -87 Level FlightAware ADS-B
Sun 05:05:08 AM 48.9431 -7.8363 102° East 498 573 35,000 -162 Descending FlightAware UK
Sun 05:05:11 AM 48.9420 -7.8300 102° East 556 640 35,000 176 Level FlightAware ADS-B
Sun 05:05:42 AM 48.9250 -7.7200 103° East 554 638 35,100 88 Climbing FlightAware ADS-B
Sun 05:06:19 AM 48.9040 -7.5800 103° East 552 635 35,100 -83 Level FlightAware ADS-B
Sun 05:06:54 AM 48.8830 -7.4470 103° East 550 633 35,000 -88 Descending FlightAware ADS-B
Sun 05:07:27 AM 48.8640 -7.3250 103° East 550 633 35,000 87 Level FlightAware ADS-B
Sun 05:08:03 AM 48.8440 -7.1910 103° East 547 629 35,100  Climbing FlightAware ADS-B
Sun 05:08:38 AM 48.8193 -7.0441 103° East 492 566 35,000 -162 Descending FlightAware UK
Sun 05:08:40 AM 48.8210 -7.0490 103° East 544 626 35,000  Level FlightAware ADS-B
Sun 05:09:16 AM 48.7990 -6.9130 104° East 543 625 35,000 81 Level FlightAware ADS-B
Sun 05:09:54 AM 48.7770 -6.7780 104° East 544 626 35,100  Climbing FlightAware ADS-B
Sun 05:10:32 AM 48.7540 -6.6330 103° East 544 626 35,000  Descending FlightAware ADS-B
Sun 05:11:05 AM 48.7340 -6.5140 104° East 545 627 35,100 95 Climbing FlightAware ADS-B
Sun 05:11:35 AM 48.7160 -6.4000 104° East 548 631 35,100 -176 Level FlightAware ADS-B
Sun 05:11:39 AM 48.7122 -6.3803 104° East 494 568 35,000 -176 Descending FlightAware UK
Sun 05:12:09 AM 48.6941 -6.2694 104° East 496 571 35,000 171 Level FlightAware UK
Sun 05:12:14 AM 48.6910 -6.2540 104° East 549 632 35,100 146 Climbing FlightAware ADS-B
Sun 05:12:50 AM 48.6700 -6.1260 104° East 549 632 35,100  Level FlightAware ADS-B
Sun 05:13:25 AM 48.6470 -5.9910 104° East 549 632 35,100  Level FlightAware ADS-B
Sun 05:14:03 AM 48.6240 -5.8530 104° East 548 631 35,100 -86 Level FlightAware ADS-B
Sun 05:14:35 AM 48.6030 -5.7320 105° East 548 631 35,000  Descending FlightAware ADS-B
Sun 05:15:12 AM 48.5750 -5.6010 108° East 546 628 35,100 83 Climbing FlightAware ADS-B
Sun 05:15:47 AM 48.5410 -5.4810 113° Southeast 541 623 35,100  Level FlightAware ADS-B
Sun 05:16:20 AM 48.5040 -5.3700 117° Southeast 539 620 35,100 -87 Level FlightAware ADS-B
Sun 05:16:56 AM 48.4610 -5.2420 117° Southeast 536 617 35,000 -162 Descending FlightAware ADS-B
Sun 05:16:57 AM 48.4593 -5.2360 117° Southeast 498 573 35,000  Level FlightAware UK
Sun 05:17:33 AM 48.4210 -5.1250 117° Southeast 534 615 35,000  Level FlightAware ADS-B
Sun 05:18:03 AM 48.3858 -5.0163 117° Southeast 498 573 35,000  Level FlightAware UK
Sun 05:18:03 AM 48.3880 -5.0230 117° Southeast 531 611 35,000  Level FlightAware ADS-B
Sun 05:18:33 AM 48.3521 -4.9179 117° Southeast 496 571 35,000  Level FlightAware UK
Sun 05:18:40 AM 48.3460 -4.9020 117° Southeast 528 608 35,000  Level FlightAware ADS-B
Sun 05:19:17 AM 48.3050 -4.7850 118° Southeast 527 606 35,000  Level FlightAware ADS-B
Sun 05:19:52 AM 48.2670 -4.6710 117° Southeast 527 606 35,000  Level FlightAware ADS-B
Sun 05:20:29 AM 48.2260 -4.5550 118° Southeast 527 606 35,000  Level FlightAware ADS-B
Sun 05:21:01 AM 48.1870 -4.4420 117° Southeast 526 605 35,000  Level FlightAware ADS-B
Sun 05:21:36 AM 48.1470 -4.3280 118° Southeast 526 605 35,000  Level FlightAware ADS-B
Sun 05:22:08 AM 48.1130 -4.2320 118° Southeast 526 605 35,000  Level FlightAware ADS-B
Sun 05:22:45 AM 48.0720 -4.1120 117° Southeast 527 606 35,000  Level FlightAware ADS-B
Sun 05:23:21 AM 48.0310 -3.9930 117° Southeast 529 609 35,000  Level FlightAware ADS-B
Sun 05:23:56 AM 47.9900 -3.8760 118° Southeast 530 610 35,000  Level FlightAware ADS-B
Sun 05:24:31 AM 47.9520 -3.7690 118° Southeast 531 611 35,000  Level FlightAware ADS-B
Sun 05:25:07 AM 47.9110 -3.6520 118° Southeast 530 610 35,000  Level FlightAware ADS-B
Sun 05:25:41 AM 47.8730 -3.5460 118° Southeast 530 610 35,000  Level FlightAware ADS-B
Sun 05:26:13 AM 47.8330 -3.4330 118° Southeast 532 612 35,000  Level FlightAware ADS-B
Sun 05:26:52 AM 47.7910 -3.3130 117° Southeast 532 612 35,000  Level FlightAware ADS-B
Sun 05:27:27 AM 47.7510 -3.2030 118° Southeast 533 613 35,000  Level FlightAware ADS-B
Sun 05:28:00 AM 47.7110 -3.0940 119° Southeast 533 613 35,000  Level FlightAware ADS-B
Sun 05:28:35 AM 47.6690 -2.9740 117° Southeast 534 615 35,000  Level FlightAware ADS-B
Sun 05:29:10 AM 47.6280 -2.8650 119° Southeast 534 615 35,000  Level FlightAware ADS-B
Sun 05:29:45 AM 47.5870 -2.7520 118° Southeast 532 612 35,000  Level FlightAware ADS-B
Sun 05:30:22 AM 47.5440 -2.6340 118° Southeast 530 610 35,000  Level FlightAware ADS-B
Sun 05:30:55 AM 47.5050 -2.5260 118° Southeast 531 611 35,000  Level FlightAware ADS-B
Sun 05:31:30 AM 47.4640 -2.4180 119° Southeast 531 611 35,000  Level FlightAware ADS-B
Sun 05:32:07 AM 47.4200 -2.2970 118° Southeast 531 611 35,000  Level FlightAware ADS-B
Sun 05:32:38 AM 47.3840 -2.2010 119° Southeast 532 612 35,000  Level FlightAware ADS-B
Sun 05:33:08 AM 47.3480 -2.1030 118° Southeast 533 613 35,000  Level FlightAware ADS-B
Sun 05:33:44 AM 47.3070 -1.9910 118° Southeast 533 613 35,000  Level FlightAware ADS-B
Sun 05:34:19 AM 47.2630 -1.8770 120° Southeast 534 615 35,000  Level FlightAware ADS-B
Sun 05:34:52 AM 47.2240 -1.7730 119° Southeast 533 613 35,000  Level FlightAware ADS-B
Sun 05:35:26 AM 47.1830 -1.6650 119° Southeast 533 613 35,000  Level FlightAware ADS-B
Sun 05:36:10 AM 47.1300 -1.5260 119° Southeast 533 613 35,000  Level FlightAware ADS-B
Sun 05:36:47 AM 47.0870 -1.4160 120° Southeast 533 613 35,000  Level FlightAware ADS-B
Sun 05:37:20 AM 47.0460 -1.3060 119° Southeast 532 612 35,000  Level FlightAware ADS-B
Sun 05:37:58 AM 46.9990 -1.1870 120° Southeast 531 611 35,000  Level FlightAware ADS-B
Sun 05:38:30 AM 46.9610 -1.0900 120° Southeast 530 610 35,000  Level FlightAware ADS-B
Sun 05:39:06 AM 46.9170 -0.9750 119° Southeast 523 602 35,000  Level FlightAware ADS-B
Sun 05:39:42 AM 46.8740 -0.8650 120° Southeast 517 595 35,000  Level FlightAware ADS-B
Sun 05:40:14 AM 46.8370 -0.7690 119° Southeast 515 593 35,000  Level FlightAware ADS-B
Sun 05:40:50 AM 46.7950 -0.6640 120° Southeast 512 589 35,000  Level FlightAware ADS-B
Sun 05:41:26 AM 46.7550 -0.5490 117° Southeast 515 593 35,000  Level FlightAware ADS-B
Sun 05:42:12 AM 46.7180 -0.4360 115° Southeast 515 593 35,000  Level FlightAware ADS-B
Sun 05:42:52 AM 46.6710 -0.2870 115° Southeast 511 588 35,000  Level FlightAware ADS-B
Sun 05:43:25 AM 46.6430 -0.2030 116° Southeast 510 587 35,000  Level FlightAware ADS-B
Sun 05:44:16 AM 46.5990 -0.0670 115° Southeast 510 587 35,000  Level FlightAware ADS-B
Sun 05:45:02 AM 46.5390 0.1160 115° Southeast 512 589 35,000  Level FlightAware ADS-B
Sun 05:45:32 AM 46.5180 0.2190 106° East 526 605 35,000  Level FlightAware ADS-B
Sun 05:46:08 AM 46.5000 0.3470 102° East 527 606 35,000  Level FlightAware ADS-B
Sun 05:46:53 AM 46.4780 0.4960 102° East 527 606 35,000  Level FlightAware ADS-B
Sun 05:47:32 AM 46.4600 0.6200 102° East 527 606 35,000  Level FlightAware ADS-B
Sun 05:48:04 AM 46.4420 0.7440 102° East 525 604 35,000  Level FlightAware ADS-B
Sun 05:48:40 AM 46.4250 0.8650 101° East 523 602 35,000  Level FlightAware ADS-B
Sun 05:49:13 AM 46.4110 0.9710 101° East 523 602 35,000  Level FlightAware ADS-B
Sun 05:49:52 AM 46.3900 1.1140 102° East 519 597 35,000  Level FlightAware ADS-B
Sun 05:50:24 AM 46.3750 1.2190 102° East 517 595 35,000  Level FlightAware ADS-B
Sun 05:51:06 AM 46.3530 1.3640 102° East 518 596 35,000  Level FlightAware ADS-B
Sun 05:51:27 AM 46.3320 1.4310 114° Southeast 496 571 35,000  Level FlightAware ADS-B
Sun 05:52:02 AM 46.2880 1.5240 124° Southeast 492 566 35,000  Level FlightAware ADS-B
Sun 05:52:32 AM 46.2540 1.6010 123° Southeast 495 570 35,000  Level FlightAware ADS-B
Sun 05:53:17 AM 46.1950 1.7320 123° Southeast 495 570 35,000  Level FlightAware ADS-B
Sun 05:53:52 AM 46.1530 1.8290 122° Southeast 492 566 35,000  Level FlightAware ADS-B
Sun 05:54:29 AM 46.1110 1.9300 121° Southeast 487 560 35,000  Level FlightAware ADS-B
Sun 05:55:00 AM 46.0770 2.0100 121° Southeast 483 556 35,000  Level FlightAware ADS-B
Sun 05:55:40 AM 46.0280 2.1280 121° Southeast 482 555 35,000  Level FlightAware ADS-B
Sun 05:56:17 AM 45.9850 2.2290 121° Southeast 481 554 35,000  Level FlightAware ADS-B
Sun 05:56:48 AM 45.9470 2.3160 122° Southeast 481 554 35,000  Level FlightAware ADS-B
Sun 05:57:26 AM 45.9020 2.4190 122° Southeast 480 552 35,000  Level FlightAware ADS-B
Sun 05:58:01 AM 45.8620 2.5110 122° Southeast 480 552 35,000  Level FlightAware ADS-B
Sun 05:58:42 AM 45.8160 2.6190 121° Southeast 480 552 35,000  Level FlightAware ADS-B
Sun 05:59:16 AM 45.7740 2.7160 122° Southeast 480 552 35,000  Level FlightAware ADS-B
Sun 05:59:53 AM 45.7330 2.8100 122° Southeast 478 550 35,000  Level FlightAware ADS-B
Sun 06:00:34 AM 45.6820 2.9260 122° Southeast 479 551 35,000  Level FlightAware ADS-B
Sun 06:01:08 AM 45.6430 3.0170 121° Southeast 480 552 35,000  Level FlightAware ADS-B
Sun 06:01:42 AM 45.6030 3.1080 122° Southeast 478 550 35,000  Level FlightAware ADS-B
Sun 06:02:18 AM 45.5600 3.2040 123° Southeast 476 548 35,000  Level FlightAware ADS-B
Sun 06:02:51 AM 45.5240 3.2840 123° Southeast 474 545 35,000  Level FlightAware ADS-B
Sun 06:03:31 AM 45.4770 3.3910 122° Southeast 471 542 35,000  Level FlightAware ADS-B
Sun 06:04:04 AM 45.4360 3.4830 122° Southeast 468 539 35,000  Level FlightAware ADS-B
Sun 06:04:40 AM 45.3960 3.5740 122° Southeast 466 536 35,000  Level FlightAware ADS-B
Sun 06:05:16 AM 45.3540 3.6630 124° Southeast 464 534 35,000  Level FlightAware ADS-B
Sun 06:05:46 AM 45.3190 3.7430 122° Southeast 464 534 35,000  Level FlightAware ADS-B
Sun 06:06:23 AM 45.2760 3.8380 123° Southeast 466 536 35,000  Level FlightAware ADS-B
Sun 06:07:00 AM 45.2330 3.9340 122° Southeast 470 541 35,000  Level FlightAware ADS-B
Sun 06:07:34 AM 45.1940 4.0190 123° Southeast 472 543 35,000  Level FlightAware ADS-B
Sun 06:08:08 AM 45.1540 4.1080 122° Southeast 472 543 35,000  Level FlightAware ADS-B
Sun 06:08:44 AM 45.1090 4.2020 124° Southeast 469 540 35,000  Level FlightAware ADS-B
Sun 06:09:21 AM 45.0630 4.2960 125° Southeast 471 542 35,000  Level FlightAware ADS-B
Sun 06:09:40 AM 45.0450 4.3490 116° Southeast 483 556 35,000  Level FlightAware ADS-B
Sun 06:10:16 AM 45.0200 4.4550 108° East 493 567 35,000  Level FlightAware ADS-B
Sun 06:10:48 AM 44.9990 4.5540 107° East 499 574 35,000  Level FlightAware ADS-B
Sun 06:11:22 AM 44.9750 4.6670 107° East 501 577 35,000  Level FlightAware ADS-B
Sun 06:11:59 AM 44.9560 4.7510 108° East 501 577 35,000  Level FlightAware ADS-B
Sun 06:12:35 AM 44.9240 4.8950 107° East 501 577 35,000  Level FlightAware ADS-B
Sun 06:13:10 AM 44.8990 5.0030 108° East 499 574 35,000  Level FlightAware ADS-B
Sun 06:13:46 AM 44.8630 5.1080 116° Southeast 496 571 35,000  Level FlightAware ADS-B
Sun 06:14:19 AM 44.8180 5.1940 126° Southeast 499 574 35,000  Level FlightAware ADS-B
Sun 06:14:54 AM 44.7660 5.2810 130° Southeast 498 573 35,000  Level FlightAware ADS-B
Sun 06:15:31 AM 44.7100 5.3720 131° Southeast 496 571 35,000  Level FlightAware ADS-B
Sun 06:16:06 AM 44.6580 5.4570 131° Southeast 495 570 35,000  Level FlightAware ADS-B
Sun 06:16:39 AM 44.6090 5.5370 131° Southeast 494 568 35,000  Level FlightAware ADS-B
Sun 06:17:16 AM 44.5540 5.6280 130° Southeast 495 570 35,000  Level FlightAware ADS-B
Sun 06:17:48 AM 44.5070 5.7030 131° Southeast 498 573 35,000  Level FlightAware ADS-B
Sun 06:18:25 AM 44.4520 5.7940 130° Southeast 502 578 35,000  Level FlightAware ADS-B
Sun 06:19:00 AM 44.3980 5.8800 131° Southeast 506 582 35,000  Level FlightAware ADS-B
Sun 06:19:37 AM 44.3400 5.9740 131° Southeast 507 583 35,000  Level FlightAware ADS-B
Sun 06:20:09 AM 44.2910 6.0540 131° Southeast 509 586 35,000  Level FlightAware ADS-B
Sun 06:20:44 AM 44.2370 6.1400 131° Southeast 508 585 35,000  Level FlightAware ADS-B
Sun 06:21:21 AM 44.1800 6.2290 132° Southeast 507 583 35,000  Level FlightAware ADS-B
Sun 06:21:53 AM 44.1300 6.3110 130° Southeast 508 585 35,000  Level FlightAware ADS-B
Sun 06:22:30 AM 44.0740 6.3990 132° Southeast 508 585 35,000  Level FlightAware ADS-B
Sun 06:23:07 AM 44.0160 6.4920 131° Southeast 506 582 35,000  Level FlightAware ADS-B
Sun 06:23:39 AM 43.9660 6.5700 132° Southeast 506 582 35,000  Level FlightAware ADS-B
Sun 06:24:14 AM 43.9130 6.6530 132° Southeast 505 581 35,000  Level FlightAware ADS-B
Sun 06:24:49 AM 43.8600 6.7360 132° Southeast 505 581 35,000  Level FlightAware ADS-B
Sun 06:25:28 AM 43.7990 6.8330 131° Southeast 504 580 35,000  Level FlightAware ADS-B
Sun 06:26:08 AM 43.7390 6.9270 131° Southeast 506 582 35,000  Level FlightAware ADS-B
Sun 06:26:38 AM 43.6950 7.0120 126° Southeast 512 589 35,000  Level FlightAware ADS-B
Sun 06:27:18 AM 43.6490 7.1180 121° Southeast 513 590 35,000  Level FlightAware ADS-B
Sun 06:27:54 AM 43.6050 7.2190 121° Southeast 511 588 35,000  Level FlightAware ADS-B
Sun 06:28:26 AM 43.5660 7.3090 121° Southeast 509 586 35,000  Level FlightAware ADS-B
Sun 06:29:02 AM 43.5200 7.4130 121° Southeast 506 582 35,000  Level FlightAware ADS-B
Sun 06:29:36 AM 43.4800 7.5040 121° Southeast 504 580 35,000  Level FlightAware ADS-B
Sun 06:30:13 AM 43.4340 7.6050 122° Southeast 504 580 35,000  Level FlightAware ADS-B
Sun 06:30:48 AM 43.3900 7.7030 122° Southeast 505 581 35,000  Level FlightAware ADS-B
Sun 06:31:21 AM 43.3500 7.7930 121° Southeast 505 581 35,000  Level FlightAware ADS-B
Sun 06:31:57 AM 43.3060 7.8910 122° Southeast 505 581 35,000  Level FlightAware ADS-B
Sun 06:32:27 AM 43.2690 7.9730 122° Southeast 506 582 35,000  Level FlightAware ADS-B
Sun 06:33:09 AM 43.2160 8.0910 122° Southeast 507 583 35,000  Level FlightAware ADS-B
Sun 06:33:40 AM 43.1790 8.1700 123° Southeast 508 585 35,000  Level FlightAware ADS-B
Sun 06:34:17 AM 43.1330 8.2730 121° Southeast 507 583 35,000  Level FlightAware ADS-B
Sun 06:34:53 AM 43.0890 8.3680 122° Southeast 506 582 35,000  Level FlightAware ADS-B
Sun 06:35:27 AM 43.0460 8.4630 122° Southeast 505 581 35,000  Level FlightAware ADS-B
Sun 06:36:01 AM 43.0040 8.5550 122° Southeast 505 581 35,000  Level FlightAware ADS-B
Sun 06:36:37 AM 42.9590 8.6520 122° Southeast 505 581 35,000  Level FlightAware ADS-B
Sun 06:37:12 AM 42.9160 8.7440 123° Southeast 504 580 35,000  Level FlightAware ADS-B
Sun 06:37:45 AM 42.8750 8.8330 122° Southeast 505 581 35,000  Level FlightAware ADS-B
Sun 06:38:21 AM 42.8290 8.9320 122° Southeast 505 581 35,000  Level FlightAware ADS-B
Sun 06:38:58 AM 42.7830 9.0280 123° Southeast 505 581 35,000  Level FlightAware ADS-B
Sun 06:39:31 AM 42.7420 9.1170 122° Southeast 505 581 35,000  Level FlightAware ADS-B
Sun 06:40:05 AM 42.6990 9.2110 122° Southeast 506 582 35,000  Level FlightAware ADS-B
Sun 06:40:43 AM 42.6500 9.3130 123° Southeast 506 582 35,000  Level FlightAware ADS-B
Sun 06:41:19 AM 42.6070 9.4110 121° Southeast 513 590 35,000  Level FlightAware ADS-B
Sun 06:41:51 AM 42.5810 9.5080 110° East 516 594 35,000  Level FlightAware ADS-B
Sun 06:42:27 AM 42.5510 9.6180 110° East 516 594 35,000  Level FlightAware ADS-B
Sun 06:43:03 AM 42.5200 9.7260 111° Southeast 516 594 35,000  Level FlightAware ADS-B
Sun 06:43:33 AM 42.4930 9.8160 112° Southeast 517 595 35,000  Level FlightAware ADS-B
Sun 06:44:09 AM 42.4630 9.9260 110° East 518 596 35,000  Level FlightAware ADS-B
Sun 06:44:46 AM 42.4330 10.0380 110° East 518 596 35,000  Level FlightAware ADS-B
Sun 06:45:22 AM 42.4030 10.1470 110° East 517 595 35,000  Level FlightAware ADS-B
Sun 06:45:57 AM 42.3730 10.2530 111° Southeast 517 595 35,000  Level FlightAware ADS-B
Sun 06:46:31 AM 42.3450 10.3520 111° Southeast 516 594 35,000  Level FlightAware ADS-B
Sun 06:47:07 AM 42.3130 10.4630 111° Southeast 515 593 35,000  Level FlightAware ADS-B
Sun 06:47:43 AM 42.2830 10.5710 111° Southeast 514 592 35,000  Level FlightAware ADS-B
Sun 06:48:15 AM 42.2560 10.6670 111° Southeast 514 592 35,000  Level FlightAware ADS-B
Sun 06:48:50 AM 42.2270 10.7690 111° Southeast 513 590 35,000  Level FlightAware ADS-B
Sun 06:49:26 AM 42.1970 10.8730 111° Southeast 510 587 35,000  Level FlightAware ADS-B
Sun 06:49:40 AM 42.1790 10.9140 121° Southeast 504 580 35,000  Level FlightAware ADS-B
Sun 06:50:15 AM 42.1260 11.0010 129° Southeast 502 578 35,000  Level FlightAware ADS-B
Sun 06:50:51 AM 42.0730 11.0880 129° Southeast 501 577 35,000  Level FlightAware ADS-B
Sun 06:51:23 AM 42.0280 11.1670 127° Southeast 501 577 35,000  Level FlightAware ADS-B
Sun 06:51:59 AM 41.9830 11.2490 126° Southeast 500 575 35,000  Level FlightAware ADS-B
Sun 06:52:38 AM 41.9230 11.3520 128° Southeast 499 574 35,000  Level FlightAware ADS-B
Sun 06:53:10 AM 41.8740 11.4280 131° Southeast 500 575 35,000  Level FlightAware ADS-B
Sun 06:53:45 AM 41.8240 11.5080 130° Southeast 499 574 35,000  Level FlightAware ADS-B
Sun 06:54:22 AM 41.7680 11.5990 130° Southeast 499 574 35,000  Level FlightAware ADS-B
Sun 06:54:58 AM 41.7150 11.6850 130° Southeast 498 573 35,000  Level FlightAware ADS-B
Sun 06:55:30 AM 41.6680 11.7610 130° Southeast 498 573 35,000  Level FlightAware ADS-B
Sun 06:56:04 AM 41.6180 11.8420 130° Southeast 498 573 35,000  Level FlightAware ADS-B
Sun 06:56:42 AM 41.5630 11.9290 130° Southeast 498 573 35,000  Level FlightAware ADS-B
Sun 06:57:18 AM 41.5090 12.0160 130° Southeast 499 574 35,000  Level FlightAware ADS-B
Sun 06:57:50 AM 41.4620 12.0920 130° Southeast 500 575 35,000 88 Level FlightAware ADS-B
Sun 06:58:26 AM 41.4090 12.1780 129° Southeast 502 578 35,100 750 Climbing FlightAware ADS-B
Sun 06:59:02 AM 41.3540 12.2630 131° Southeast 502 578 35,900 1,371 Climbing FlightAware ADS-B
Sun 06:59:36 AM 41.3050 12.3410 130° Southeast 498 573 36,700 868 Climbing FlightAware ADS-B
Sun 07:00:18 AM 41.2430 12.4390 130° Southeast 496 571 37,000 231 Climbing FlightAware ADS-B
Sun 07:00:54 AM 41.1930 12.5300 126° Southeast 495 570 37,000  Level FlightAware ADS-B
Sun 07:01:30 AM 41.1590 12.6250 115° Southeast 495 570 37,000  Level FlightAware ADS-B
Sun 07:02:03 AM 41.1290 12.7170 113° Southeast 494 568 37,000  Level FlightAware ADS-B
Sun 07:02:37 AM 41.0990 12.8150 112° Southeast 492 566 37,000  Level FlightAware ADS-B
Sun 07:03:15 AM 41.0670 12.9150 113° Southeast 492 566 37,000  Level FlightAware ADS-B
Sun 07:03:51 AM 41.0340 13.0200 113° Southeast 492 566 37,000  Level FlightAware ADS-B
Sun 07:04:29 AM 40.9990 13.1250 114° Southeast 491 565 37,000  Level FlightAware ADS-B
Sun 07:05:05 AM 40.9650 13.2240 114° Southeast 492 566 37,000  Level FlightAware ADS-B
Sun 07:05:41 AM 40.9320 13.3200 114° Southeast 493 567 37,000  Level FlightAware ADS-B
Sun 07:06:13 AM 40.9020 13.4110 114° Southeast 493 567 37,000  Level FlightAware ADS-B
Sun 07:06:49 AM 40.8690 13.5070 114° Southeast 495 570 37,000  Level FlightAware ADS-B
Sun 07:07:25 AM 40.8330 13.6080 115° Southeast 495 570 37,000  Level FlightAware ADS-B
Sun 07:08:01 AM 40.7870 13.6990 124° Southeast 495 570 37,000  Level FlightAware ADS-B
Sun 07:08:33 AM 40.7470 13.7800 123° Southeast 495 570 37,000  Level FlightAware ADS-B
Sun 07:09:10 AM 40.7020 13.8710 123° Southeast 494 568 37,000  Level FlightAware ADS-B
Sun 07:09:43 AM 40.6630 13.9580 121° Southeast 492 566 37,000  Level FlightAware ADS-B
Sun 07:10:21 AM 40.6220 14.0590 118° Southeast 492 566 37,000  Level FlightAware ADS-B
Sun 07:10:51 AM 40.5910 14.1390 117° Southeast 492 566 37,000  Level FlightAware ADS-B
Sun 07:11:12 AM 40.5810 14.1660 116° Southeast 492 566 37,000  Level FlightAware ADS-B
Sun 07:12:03 AM 40.5160 14.3250 118° Southeast 494 568 37,000  Level FlightAware ADS-B
Sun 07:12:42 AM 40.4750 14.4310 117° Southeast 495 570 37,000  Level FlightAware ADS-B
Sun 07:13:12 AM 40.4420 14.5110 118° Southeast 496 571 37,000  Level FlightAware ADS-B
Sun 07:13:47 AM 40.4060 14.6020 117° Southeast 496 571 37,000  Level FlightAware ADS-B
Sun 07:14:22 AM 40.3680 14.6980 117° Southeast 496 571 37,000  Level FlightAware ADS-B
Sun 07:15:02 AM 40.3260 14.8040 117° Southeast 494 568 37,000  Level FlightAware ADS-B
Sun 07:15:32 AM 40.2930 14.8830 119° Southeast 493 567 37,000  Level FlightAware ADS-B
Sun 07:16:09 AM 40.2570 14.9760 117° Southeast 492 566 37,000  Level FlightAware ADS-B
Sun 07:16:42 AM 40.2190 15.0680 118° Southeast 489 563 37,000  Level FlightAware ADS-B
Sun 07:17:22 AM 40.1770 15.1710 118° Southeast 490 564 37,000  Level FlightAware ADS-B
Sun 07:17:52 AM 40.1440 15.2520 118° Southeast 487 560 37,000  Level FlightAware ADS-B
Sun 07:18:27 AM 40.1060 15.3460 118° Southeast 489 563 37,000  Level FlightAware ADS-B
Sun 07:19:03 AM 40.0690 15.4340 119° Southeast 488 562 37,000  Level FlightAware ADS-B
Sun 07:19:42 AM 40.0270 15.5380 118° Southeast 485 558 37,000  Level FlightAware ADS-B
Sun 07:20:12 AM 39.9950 15.6160 118° Southeast 484 557 37,000  Level FlightAware ADS-B
Sun 07:20:47 AM 39.9570 15.7060 119° Southeast 483 556 37,000  Level FlightAware ADS-B
Sun 07:21:27 AM 39.9140 15.8120 118° Southeast 484 557 37,000  Level FlightAware ADS-B
Sun 07:21:57 AM 39.8820 15.8870 119° Southeast 483 556 37,000  Level FlightAware ADS-B
Sun 07:22:32 AM 39.8480 15.9690 118° Southeast 484 557 37,000  Level FlightAware ADS-B
Sun 07:23:07 AM 39.8100 16.0600 119° Southeast 485 558 37,000  Level FlightAware ADS-B
Sun 07:23:43 AM 39.7670 16.1630 118° Southeast 489 563 37,000  Level FlightAware ADS-B
Sun 07:24:20 AM 39.7270 16.2560 119° Southeast 490 564 37,000  Level FlightAware ADS-B
Sun 07:24:55 AM 39.6890 16.3470 118° Southeast 492 566 37,000  Level FlightAware ADS-B
Sun 07:25:31 AM 39.6480 16.4450 118° Southeast 494 568 37,000  Level FlightAware ADS-B
Sun 07:26:05 AM 39.6120 16.5310 118° Southeast 494 568 37,000  Level FlightAware ADS-B
Sun 07:26:42 AM 39.5710 16.6270 119° Southeast 494 568 37,000  Level FlightAware ADS-B
Sun 07:27:12 AM 39.5370 16.7040 120° Southeast 494 568 37,000  Level FlightAware ADS-B
Sun 07:27:50 AM 39.4950 16.8030 119° Southeast 495 570 37,000  Level FlightAware ADS-B
Sun 07:28:24 AM 39.4580 16.8880 119° Southeast 495 570 37,000  Level FlightAware ADS-B
Sun 07:29:00 AM 39.4170 16.9840 119° Southeast 496 571 37,000  Level FlightAware ADS-B
Sun 07:29:36 AM 39.3780 17.0750 119° Southeast 496 571 37,000  Level FlightAware ADS-B
Sun 07:30:18 AM 39.3360 17.1840 116° Southeast 497 572 37,000  Level FlightAware ADS-B
Sun 07:30:54 AM 39.2990 17.2860 115° Southeast 498 573 37,000  Level FlightAware ADS-B
Sun 07:31:26 AM 39.2680 17.3730 115° Southeast 499 574 37,000  Level FlightAware ADS-B
Sun 07:32:02 AM 39.2350 17.4700 114° Southeast 499 574 37,000  Level FlightAware ADS-B
Sun 07:32:36 AM 39.2020 17.5630 115° Southeast 499 574 37,000  Level FlightAware ADS-B
Sun 07:33:12 AM 39.1680 17.6600 114° Southeast 498 573 37,000  Level FlightAware ADS-B
Sun 07:33:46 AM 39.1350 17.7520 115° Southeast 500 575 37,000  Level FlightAware ADS-B
Sun 07:34:20 AM 39.1030 17.8440 114° Southeast 500 575 37,000  Level FlightAware ADS-B
Sun 07:34:59 AM 39.0660 17.9470 115° Southeast 500 575 37,000  Level FlightAware ADS-B
Sun 07:35:34 AM 39.0330 18.0380 115° Southeast 499 574 37,000  Level FlightAware ADS-B
Sun 07:36:04 AM 39.0020 18.1250 115° Southeast 499 574 37,000  Level FlightAware ADS-B
Sun 07:36:42 AM 38.9660 18.2270 114° Southeast 499 574 37,000  Level FlightAware ADS-B
Sun 07:37:17 AM 38.9310 18.3210 116° Southeast 500 575 37,000  Level FlightAware ADS-B
Sun 07:37:54 AM 38.8950 18.4210 115° Southeast 500 575 37,000  Level FlightAware ADS-B
Sun 07:38:26 AM 38.8640 18.5060 115° Southeast 499 574 37,000  Level FlightAware ADS-B
Sun 07:39:02 AM 38.8290 18.6030 115° Southeast 499 574 37,000  Level FlightAware ADS-B
Sun 07:39:36 AM 38.7960 18.6940 115° Southeast 498 573 37,000  Level FlightAware ADS-B
Sun 07:40:18 AM 38.7570 18.8040 114° Southeast 498 573 37,000  Level FlightAware ADS-B
Sun 07:40:54 AM 38.7230 18.8980 115° Southeast 497 572 37,000  Level FlightAware ADS-B
Sun 07:41:29 AM 38.6890 18.9940 114° Southeast 497 572 37,000  Level FlightAware ADS-B
Sun 07:42:04 AM 38.6560 19.0840 115° Southeast 496 571 37,000  Level FlightAware ADS-B
Sun 07:42:34 AM 38.6260 19.1670 115° Southeast 496 571 37,000  Level FlightAware ADS-B
Sun 07:43:13 AM 38.5870 19.2700 116° Southeast 495 570 37,000  Level FlightAware ADS-B
Sun 07:43:49 AM 38.5520 19.3660 115° Southeast 495 570 37,000  Level FlightAware ADS-B
Sun 07:44:23 AM 38.5190 19.4550 115° Southeast 496 571 37,000  Level FlightAware ADS-B
Sun 07:44:59 AM 38.4850 19.5510 114° Southeast 496 571 37,000  Level FlightAware ADS-B
Sun 07:45:33 AM 38.4500 19.6410 116° Southeast 496 571 37,000  Level FlightAware ADS-B
Sun 07:46:09 AM 38.4160 19.7330 115° Southeast 496 571 37,000  Level FlightAware ADS-B
Sun 07:46:43 AM 38.3820 19.8260 115° Southeast 495 570 37,000  Level FlightAware ADS-B
Sun 07:47:19 AM 38.3470 19.9200 115° Southeast 496 571 37,000  Level FlightAware ADS-B
Sun 07:47:53 AM 38.3130 20.0100 116° Southeast 496 571 37,000  Level FlightAware ADS-B
Sun 07:48:29 AM 38.2780 20.1020 116° Southeast 496 571 37,000  Level FlightAware ADS-B
Sun 07:49:03 AM 38.2440 20.1940 115° Southeast 493 567 37,000  Level FlightAware ADS-B
Sun 07:49:39 AM 38.2080 20.2890 116° Southeast 496 571 37,000  Level FlightAware ADS-B
Sun 07:50:14 AM 38.1740 20.3780 116° Southeast 492 566 37,000  Level FlightAware ADS-B
Sun 07:50:49 AM 38.1390 20.4700 116° Southeast 493 567 37,000  Level FlightAware ADS-B
Sun 07:51:24 AM 38.1030 20.5640 116° Southeast 493 567 37,000  Level FlightAware ADS-B
Sun 07:52:00 AM 38.0670 20.6560 116° Southeast 493 567 37,000  Level FlightAware ADS-B
Sun 07:52:34 AM 38.0330 20.7480 115° Southeast 493 567 37,000  Level FlightAware ADS-B
Sun 07:53:15 AM 37.9920 20.8550 116° Southeast 493 567 37,000  Level FlightAware ADS-B
Sun 07:53:49 AM 37.9570 20.9430 117° Southeast 493 567 37,000  Level FlightAware ADS-B
Sun 07:54:25 AM 37.9220 21.0340 116° Southeast 492 566 37,000  Level FlightAware ADS-B
Sun 07:54:59 AM 37.8880 21.1200 117° Southeast 492 566 37,000  Level FlightAware ADS-B
Sun 07:55:35 AM 37.8500 21.2170 116° Southeast 493 567 37,000  Level FlightAware ADS-B
Sun 07:56:10 AM 37.8130 21.3130 116° Southeast 497 572 37,000  Level FlightAware ADS-B
Sun 07:56:45 AM 37.7780 21.4040 116° Southeast 497 572 37,000  Level FlightAware ADS-B
Sun 07:57:22 AM 37.7400 21.4980 117° Southeast 497 572 37,000  Level FlightAware ADS-B
Sun 07:57:58 AM 37.7020 21.5940 117° Southeast 497 572 37,000  Level FlightAware ADS-B
Sun 07:58:33 AM 37.6680 21.6820 116° Southeast 497 572 37,000  Level FlightAware ADS-B
Sun 07:59:06 AM 37.6330 21.7700 117° Southeast 497 572 37,000  Level FlightAware ADS-B
Sun 07:59:41 AM 37.5960 21.8610 117° Southeast 497 572 37,000  Level FlightAware ADS-B
Sun 08:00:18 AM 37.5590 21.9540 117° Southeast 497 572 37,000  Level FlightAware ADS-B
Sun 08:00:54 AM 37.5220 22.0470 117° Southeast 497 572 37,000  Level FlightAware ADS-B
Sun 08:01:25 AM 37.4890 22.1270 117° Southeast 499 574 37,000  Level FlightAware ADS-B
Sun 08:02:02 AM 37.4520 22.2210 116° Southeast 500 575 37,000  Level FlightAware ADS-B
Sun 08:02:36 AM 37.4130 22.3130 118° Southeast 500 575 37,000  Level FlightAware ADS-B
Sun 08:03:11 AM 37.3700 22.3990 122° Southeast 501 577 37,000  Level FlightAware ADS-B
Sun 08:03:48 AM 37.3200 22.4850 126° Southeast 502 578 37,000  Level FlightAware ADS-B
Sun 08:04:22 AM 37.2740 22.5670 125° Southeast 503 579 37,000  Level FlightAware ADS-B
Sun 08:04:57 AM 37.2270 22.6480 126° Southeast 504 580 37,000  Level FlightAware ADS-B
Sun 08:05:34 AM 37.1770 22.7330 126° Southeast 507 583 37,000  Level FlightAware ADS-B
Sun 08:06:05 AM 37.1350 22.8070 125° Southeast 507 583 37,000  Level FlightAware ADS-B
Sun 08:06:41 AM 37.0820 22.8970 126° Southeast 508 585 37,000  Level FlightAware ADS-B
Sun 08:07:16 AM 37.0340 22.9780 127° Southeast 509 586 37,000  Level FlightAware ADS-B
Sun 08:07:52 AM 36.9840 23.0660 125° Southeast 509 586 37,000  Level FlightAware ADS-B
Sun 08:08:25 AM 36.9390 23.1420 127° Southeast 510 587 37,000  Level FlightAware ADS-B
Sun 08:09:03 AM 36.8840 23.2350 126° Southeast 511 588 37,000  Level FlightAware ADS-B
Sun 08:09:39 AM 36.8340 23.3210 126° Southeast 513 590 37,000  Level FlightAware ADS-B
Sun 08:10:11 AM 36.7890 23.3970 126° Southeast 512 589 37,000  Level FlightAware ADS-B
Sun 08:10:47 AM 36.7380 23.4830 126° Southeast 512 589 37,000  Level FlightAware ADS-B
Sun 08:11:23 AM 36.6890 23.5660 126° Southeast 513 590 37,000  Level FlightAware ADS-B
Sun 08:11:41 AM 36.6630 23.6090 127° Southeast 513 590 37,000  Level FlightAware ADS-B
Sun 08:12:30 AM 36.5930 23.7270 126° Southeast 514 592 37,000  Level FlightAware ADS-B
Sun 08:13:05 AM 36.5430 23.8110 127° Southeast 514 592 37,000  Level FlightAware ADS-B
Sun 08:13:42 AM 36.4940 23.8910 127° Southeast 514 592 37,000  Level FlightAware ADS-B
Sun 08:14:19 AM 36.4390 23.9830 127° Southeast 515 593 37,000  Level FlightAware ADS-B
Sun 08:14:51 AM 36.3920 24.0620 126° Southeast 515 593 37,000  Level FlightAware ADS-B
Sun 08:15:26 AM 36.3430 24.1420 127° Southeast 515 593 37,000  Level FlightAware ADS-B
Sun 08:16:04 AM 36.2880 24.2320 127° Southeast 516 594 37,000  Level FlightAware ADS-B
Sun 08:16:36 AM 36.2420 24.3080 127° Southeast 517 595 37,000  Level FlightAware ADS-B
Sun 08:17:10 AM 36.1920 24.3930 126° Southeast 517 595 37,000  Level FlightAware ADS-B
Sun 08:17:48 AM 36.1370 24.4800 128° Southeast 517 595 37,000  Level FlightAware ADS-B
Sun 08:18:24 AM 36.0860 24.5650 127° Southeast 517 595 37,000  Level FlightAware ADS-B
Sun 08:18:56 AM 36.0410 24.6380 127° Southeast 516 594 37,000  Level FlightAware ADS-B
Sun 08:19:30 AM 35.9900 24.7200 128° Southeast 516 594 37,000  Level FlightAware ADS-B
Sun 08:20:08 AM 35.9360 24.8090 127° Southeast 515 593 37,000  Level FlightAware ADS-B
Sun 08:20:44 AM 35.8830 24.8940 128° Southeast 515 593 37,000  Level FlightAware ADS-B
Sun 08:21:14 AM 35.8400 24.9640 127° Southeast 515 593 37,000  Level FlightAware ADS-B
Sun 08:21:52 AM 35.7850 25.0520 128° Southeast 514 592 37,000  Level FlightAware ADS-B
Sun 08:22:28 AM 35.7330 25.1360 127° Southeast 514 592 37,000  Level FlightAware ADS-B
Sun 08:23:04 AM 35.6820 25.2190 127° Southeast 513 590 37,000  Level FlightAware ADS-B
Sun 08:23:36 AM 35.6350 25.2940 128° Southeast 514 592 37,000  Level FlightAware ADS-B
Sun 08:24:12 AM 35.5830 25.3770 128° Southeast 515 593 37,000  Level FlightAware ADS-B
Sun 08:24:44 AM 35.5370 25.4510 127° Southeast 517 595 37,000  Level FlightAware ADS-B
Sun 08:25:22 AM 35.4800 25.5400 128° Southeast 518 596 37,000  Level FlightAware ADS-B
Sun 08:25:56 AM 35.4310 25.6190 127° Southeast 519 597 37,000  Level FlightAware ADS-B
Sun 08:26:33 AM 35.3770 25.7030 128° Southeast 519 597 37,000  Level FlightAware ADS-B
Sun 08:27:08 AM 35.3250 25.7870 127° Southeast 519 597 37,000  Level FlightAware ADS-B
Sun 08:27:42 AM 35.2750 25.8650 128° Southeast 518 596 37,000  Level FlightAware ADS-B
Sun 08:28:14 AM 35.2280 25.9400 127° Southeast 519 597 37,000  Level FlightAware ADS-B
Sun 08:28:54 AM 35.1680 26.0320 129° Southeast 519 597 37,000  Level FlightAware ADS-B
Sun 08:29:26 AM 35.1210 26.1060 128° Southeast 519 597 37,000  Level FlightAware ADS-B
Sun 08:30:00 AM 35.0740 26.1880 125° Southeast 522 601 37,000  Level FlightAware ADS-B
Sun 08:30:56 AM 35.0210 26.3250 115° Southeast 527 606 37,000  Level FlightAware ADS-B
Sun 08:31:54 AM 34.9700 26.4850 111° Southeast 527 606 37,000  Level FlightAware ADS-B
Sun 08:32:30 AM 34.9330 26.5980 112° Southeast 528 608 37,000  Level FlightAware ADS-B
Sun 08:33:06 AM 34.9000 26.6950 113° Southeast 527 606 37,000  Level FlightAware ADS-B
Sun 08:33:37 AM 34.8730 26.7770 112° Southeast 527 606 37,000  Level FlightAware ADS-B
Sun 08:34:14 AM 34.8440 26.8640 112° Southeast 527 606 37,000  Level FlightAware ADS-B
Sun 08:34:51 AM 34.8160 26.9500 112° Southeast 527 606 37,000  Level FlightAware ADS-B
Sun 08:35:28 AM 34.7870 27.0370 112° Southeast 527 606 37,000  Level FlightAware ADS-B
Sun 08:36:04 AM 34.7590 27.1210 112° Southeast 527 606 37,000  Level FlightAware ADS-B
Sun 08:36:40 AM 34.7310 27.2050 112° Southeast 527 606 37,000  Level FlightAware ADS-B
Sun 08:37:16 AM 34.7030 27.2890 112° Southeast 527 606 37,000  Level FlightAware ADS-B
Sun 08:37:53 AM 34.6740 27.3760 112° Southeast 527 606 37,000  Level FlightAware ADS-B
Sun 08:38:29 AM 34.6460 27.4600 112° Southeast 527 606 37,000  Level FlightAware ADS-B
Sun 08:39:05 AM 34.6180 27.5440 112° Southeast 527 606 37,000  Level FlightAware ADS-B
Sun 08:39:42 AM 34.5900 27.6300 112° Southeast 527 606 37,000  Level FlightAware ADS-B
Sun 08:40:19 AM 34.5610 27.7170 112° Southeast 527 606 37,000  Level FlightAware ADS-B
Sun 08:40:55 AM 34.5330 27.8010 112° Southeast 527 606 37,000  Level FlightAware ADS-B
Sun 08:41:31 AM 34.5050 27.8850 112° Southeast 527 606 37,000  Level FlightAware ADS-B
Sun 08:42:07 AM 34.4770 27.9690 112° Southeast 527 606 37,000  Level FlightAware ADS-B
Sun 08:42:43 AM 34.4490 28.0530 112° Southeast 527 606 37,000  Level FlightAware ADS-B
Sun 08:43:17 AM 34.4230 28.1320 112° Southeast 527 606 37,000  Level FlightAware ADS-B
Sun 08:43:27 AM 34.4150 28.1550 112° Southeast 527 606 37,000  Level FlightAware ADS-B
Sun 08:45:00 AM 34.3309 28.4173 111° Southeast  Level Estimated
Sun 08:46:00 AM 34.2770 28.5832 111° Southeast  Level Estimated
Sun 08:47:00 AM 34.2228 28.7488 112° Southeast  Level Estimated
Sun 08:48:00 AM 34.1684 28.9143 112° Southeast  Level Estimated
Sun 08:49:00 AM 34.1138 29.0795 112° Southeast  Level Estimated
Sun 08:50:00 AM 34.0589 29.2446 112° Southeast  Level Estimated
Sun 08:51:00 AM 34.0039 29.4094 112° Southeast  Level Estimated
Sun 08:52:00 AM 33.9486 29.5740 112° Southeast  Level Estimated
Sun 08:53:21 AM 33.7350 30.0350 113° Southeast 542 624 37,000  Level FlightAware ADS-B
Sun 08:53:38 AM 33.7320 30.0890 94° East 544 626 37,000  Level FlightAware ADS-B
Sun 08:53:57 AM 33.7300 30.1470 92° East 545 627 37,000  Level FlightAware ADS-B
Sun 08:54:02 AM 33.7300 30.1590 90° East 545 627 37,000  Level FlightAware ADS-B
Sun 08:54:07 AM 33.7300 30.1740 90° East 545 627 37,000  Level FlightAware ADS-B
Sun 08:54:16 AM 33.7290 30.2010 93° East 545 627 37,000  Level FlightAware ADS-B
Sun 08:54:21 AM 33.7290 30.2160 90° East 545 627 37,000  Level FlightAware ADS-B
Sun 08:55:02 AM 33.7270 30.3400 91° East 545 627 37,000  Level FlightAware ADS-B
Sun 08:55:31 AM 33.7190 30.4300 96° East 546 628 37,000  Level FlightAware ADS-B
Sun 08:56:08 AM 33.7000 30.5340 102° East 546 628 37,000  Level FlightAware ADS-B
Sun 08:56:44 AM 33.6750 30.6440 105° East 543 625 37,000  Level FlightAware ADS-B
Sun 08:57:26 AM 33.6480 30.7610 105° East 544 626 37,000  Level FlightAware ADS-B
Sun 08:58:00 AM 33.6240 30.8630 106° East 544 626 37,000  Level FlightAware ADS-B
Sun 08:58:46 AM 33.5960 30.9860 105° East 544 626 37,000  Level FlightAware ADS-B
Sun 08:59:20 AM 33.5700 31.0950 106° East 544 626 37,000  Level FlightAware ADS-B
Sun 08:59:51 AM 33.5480 31.1850 106° East 545 627 37,000  Level FlightAware ADS-B
Sun 09:00:28 AM 33.5240 31.2870 106° East 545 627 37,000  Level FlightAware ADS-B
Sun 09:01:02 AM 33.4980 31.3910 107° East 542 624 37,000  Level FlightAware ADS-B
Sun 09:01:41 AM 33.4740 31.4920 106° East 542 624 37,000  Level FlightAware ADS-B
Sun 09:02:12 AM 33.4490 31.5930 106° East 542 624 37,000  Level FlightAware ADS-B
Sun 09:02:46 AM 33.4260 31.6910 106° East 542 624 37,000  Level FlightAware ADS-B
Sun 09:03:22 AM 33.4000 31.7960 106° East 544 626 37,000  Level FlightAware ADS-B
Sun 09:04:01 AM 33.3750 31.9030 106° East 545 627 37,000  Level FlightAware ADS-B
Sun 09:04:32 AM 33.3530 31.9930 106° East 546 628 37,000  Level FlightAware ADS-B
Sun 09:05:11 AM 33.3240 32.1110 106° East 544 626 37,000  Level FlightAware ADS-B
Sun 09:05:52 AM 33.2960 32.2300 106° East 544 626 37,000  Level FlightAware ADS-B
Sun 09:06:26 AM 33.2720 32.3280 106° East 543 625 37,000  Level FlightAware ADS-B
Sun 09:07:02 AM 33.2460 32.4330 106° East 543 625 37,000  Level FlightAware ADS-B
Sun 09:07:36 AM 33.2220 32.5330 106° East 542 624 37,000  Level FlightAware ADS-B
Sun 09:08:08 AM 33.2000 32.6200 107° East 543 625 37,000  Level FlightAware ADS-B
Sun 09:08:47 AM 33.1710 32.7380 106° East 544 626 37,000  Level FlightAware ADS-B
Sun 09:09:17 AM 33.1510 32.8160 107° East 544 626 37,000  Level FlightAware ADS-B
Sun 09:09:52 AM 33.1210 32.9180 109° East 542 624 37,000  Level FlightAware ADS-B
Sun 09:10:32 AM 33.0760 33.0190 118° Southeast 543 625 37,000 -1,147 Level FlightAware ADS-B
Sun 09:11:00 AM 33.0370 33.0960 121° Southeast 541 623 35,700 -3,265 Descending FlightAware ADS-B
Sun 09:11:40 AM 32.9830 33.2030 121° Southeast 547 629 33,300 -2,750 Descending FlightAware ADS-B
Sun 09:12:12 AM 32.9540 33.2570 123° Southeast 541 623 32,400 -3,037 Descending FlightAware ADS-B
Sun 09:13:01 AM 32.8770 33.4060 122° Southeast 536 617 29,200 -2,764 Descending FlightAware ADS-B
Sun 09:13:41 AM 32.8250 33.5070 121° Southeast 502 578 28,300 -1,737 Descending FlightAware ADS-B
Sun 09:14:17 AM 32.7820 33.5900 122° Southeast 486 559 27,000 -2,273 Descending FlightAware ADS-B
Sun 09:14:47 AM 32.7470 33.6590 121° Southeast 476 548 25,800 -2,328 Descending FlightAware ADS-B
Sun 09:15:24 AM 32.7050 33.7380 122° Southeast 464 534 24,400 -2,630 Descending FlightAware ADS-B
Sun 09:16:00 AM 32.6640 33.8150 122° Southeast 459 528 22,600 -3,171 Descending FlightAware ADS-B
Sun 09:16:34 AM 32.6270 33.8890 121° Southeast 464 534 20,700 -3,257 Descending FlightAware ADS-B
Sun 09:17:10 AM 32.5880 33.9620 122° Southeast 458 527 18,800 -4,083 Descending FlightAware ADS-B
Sun 09:17:46 AM 32.5460 34.0440 121° Southeast 474 545 15,800 -3,803 Descending FlightAware ADS-B
Sun 09:18:21 AM 32.5050 34.1220 122° Southeast 454 522 14,300 -1,612 Descending FlightAware ADS-B
Sun 09:18:53 AM 32.4710 34.1840 123° Southeast 416 479 14,000 -439 Descending FlightAware ADS-B
Sun 09:19:02 AM 32.4590 34.2010 130° Southeast 401 461 14,000 -571 Level FlightAware ADS-B
Sun 09:19:14 AM 32.4400 34.2130 152° Southeast 381 438 13,800 -960 Descending FlightAware ADS-B
Sun 09:19:27 AM 32.4190 34.2180 169° South 366 421 13,600 -1,029 Descending FlightAware ADS-B
Sun 09:19:49 AM 32.4280 34.2170 355° North 354 407 13,200 -1,161 Descending FlightAware ADS-B
Sun 09:19:58 AM 32.3800 34.2000 197° South 339 390 13,000 -1,440 Descending FlightAware ADS-B
Sun 09:20:14 AM 32.3670 34.1660 246° West 316 364 12,600 -1,256 Descending FlightAware ADS-B
Sun 09:20:41 AM 32.3760 34.1260 285° West 294 338 12,100 -1,021 Descending FlightAware ADS-B
Sun 09:21:01 AM 32.3970 34.1080 324° Northwest 279 321 11,800 -692 Descending FlightAware ADS-B
Sun 09:21:07 AM 32.4050 34.1060 348° North 276 318 11,800 -571 Level FlightAware ADS-B
Sun 09:21:22 AM 32.4240 34.1040 355° North 274 315 11,600 -1,111 Descending FlightAware ADS-B
Sun 09:21:34 AM 32.4390 34.1010 350° North 264 304 11,300 -1,500 Descending FlightAware ADS-B
Sun 09:21:42 AM 32.4480 34.0950 331° Northwest 261 300 11,100 -1,355 Descending FlightAware ADS-B
Sun 09:22:05 AM 32.4730 34.0820 336° Northwest 261 300 10,600 -1,404 Descending FlightAware ADS-B
Sun 09:22:29 AM 32.5010 34.0920 17° North 274 315 10,000 -840 Descending FlightAware ADS-B
Sun 09:22:55 AM 32.5270 34.1140 36° Northeast 272 313 9,900 -200 Descending FlightAware ADS-B
Sun 09:22:59 AM 32.5310 34.1180 40° Northeast 272 313 9,900 -600 Level FlightAware ADS-B
Sun 09:23:05 AM 32.5350 34.1250 56° Northeast 276 318 9,800 -1,000 Descending FlightAware ADS-B
Sun 09:23:11 AM 32.5390 34.1330 59° Northeast 279 321 9,700 -1,286 Descending FlightAware ADS-B
Sun 09:23:19 AM 32.5420 34.1470 76° East 284 327 9,500 -1,500 Descending FlightAware ADS-B
Sun 09:23:27 AM 32.5410 34.1590 96° East 286 329 9,300 -1,600 Descending FlightAware ADS-B
Sun 09:23:34 AM 32.5390 34.1700 102° East 289 333 9,100 -1,125 Descending FlightAware ADS-B
Sun 09:23:43 AM 32.5340 34.1810 118° Southeast 290 334 9,000 -1,059 Descending FlightAware ADS-B
Sun 09:23:51 AM 32.5270 34.1910 130° Southeast 290 334 8,800 -1,500 Descending FlightAware ADS-B
Sun 09:23:55 AM 32.5230 34.1950 140° Southeast 290 334 8,700 -1,500 Descending FlightAware ADS-B
Sun 09:24:03 AM 32.5130 34.2020 149° Southeast 289 333 8,500 -1,091 Descending FlightAware ADS-B
Sun 09:24:17 AM 32.4950 34.2060 169° South 287 330 8,300 -882 Descending FlightAware ADS-B
Sun 09:24:37 AM 32.4690 34.1960 198° South 280 322 8,000 -923 Descending FlightAware ADS-B
Sun 09:24:56 AM 32.4490 34.1800 214° Southwest 275 316 7,700 -1,000 Descending FlightAware ADS-B
Sun 09:25:19 AM 32.4260 34.1620 213° Southwest 270 311 7,300 -1,171 Descending FlightAware ADS-B
Sun 09:25:37 AM 32.4060 34.1460 214° Southwest 268 308 6,900 -1,277 Descending FlightAware ADS-B
Sun 09:26:06 AM 32.3760 34.1230 213° Southwest 264 304 6,300 -1,176 Descending FlightAware ADS-B
Sun 09:26:28 AM 32.3540 34.1040 216° Southwest 262 302 5,900 -774 Descending FlightAware ADS-B
Sun 09:26:37 AM 32.3490 34.0950 237° Southwest 267 307 5,900 -207 Level FlightAware ADS-B
Sun 09:26:57 AM 32.3370 34.0700 240° Southwest 268 308 5,800 -122 Descending FlightAware ADS-B
Sun 09:27:26 AM 32.3220 34.0370 242° Southwest 268 308 5,800  Level FlightAware ADS-B
Sun 09:27:45 AM 32.3080 34.0070 241° Southwest 263 303 5,800 214 Level FlightAware ADS-B
Sun 09:27:54 AM 32.3000 33.9970 227° Southwest 273 314 5,900  Climbing FlightAware ADS-B
Sun 09:28:02 AM 32.2910 33.9910 209° Southwest 276 318 5,800 -1,000 Descending FlightAware ADS-B
Sun 09:28:18 AM 32.2740 33.9870 191° South 273 314 5,500 -1,263 Descending FlightAware ADS-B
Sun 09:28:40 AM 32.2520 33.9940 165° South 274 315 5,000 -1,400 Descending FlightAware ADS-B
Sun 09:28:48 AM 32.2410 34.0040 142° Southeast 269 310 4,800 -162 Descending FlightAware ADS-B
Sun 09:29:17 AM 32.2150 34.0350 135° Southeast 263 303 4,900 128 Climbing FlightAware ADS-B
Sun 09:29:35 AM 32.2000 34.0540 133° Southeast 266 306 4,900  Level FlightAware ADS-B
Sun 09:29:59 AM 32.1780 34.0790 136° Southeast 265 305 4,900  Level FlightAware ADS-B
Sun 09:30:28 AM 32.1570 34.1040 135° Southeast 266 306 4,900 -122 Level FlightAware ADS-B
Sun 09:30:48 AM 32.1360 34.1280 136° Southeast 264 304 4,800 -450 Descending FlightAware ADS-B
Sun 09:31:08 AM 32.1220 34.1450 134° Southeast 259 298 4,600 -393 Descending FlightAware ADS-B
Sun 09:31:49 AM 32.0890 34.1830 136° Southeast 247 284 4,400 -982 Descending FlightAware ADS-B
Sun 09:32:03 AM 32.0760 34.1980 136° Southeast 231 266 3,700 -2,000 Descending FlightAware ADS-B
Sun 09:32:28 AM 32.0580 34.2190 135° Southeast 228 262 3,100 -1,200 Descending FlightAware ADS-B
Sun 09:32:48 AM 32.0430 34.2370 135° Southeast 235 270 2,800 -450 Descending FlightAware ADS-B
Sun 09:33:08 AM 32.0290 34.2560 131° Southeast 231 266 2,800  Level FlightAware ADS-B
Sun 09:33:14 AM 32.0260 34.2630 117° Southeast 227 261 2,800  Level FlightAware ADS-B
Sun 09:33:23 AM 32.0250 34.2750 96° East 225 259 2,800  Level FlightAware ADS-B
Sun 09:33:43 AM 32.0340 34.2960 63° Northeast 217 250 2,800  Level FlightAware ADS-B
Sun 09:33:48 AM 32.0380 34.3000 40° Northeast 216 249 2,800  Level FlightAware ADS-B
Sun 09:34:04 AM 32.0500 34.3120 40° Northeast 217 250 2,800  Level FlightAware ADS-B
Sun 09:34:08 AM 32.0530 34.3160 48° Northeast 219 252 2,800 429 Level FlightAware ADS-B
Sun 09:34:18 AM 32.0560 34.3250 69° East 223 257 2,900 150 Climbing FlightAware ADS-B
Sun 09:34:48 AM 32.0540 34.3620 94° East 222 255 2,900 -133 Level FlightAware ADS-B
Sun 09:35:03 AM 32.0530 34.3780 94° East 225 259 2,800 -200 Descending FlightAware ADS-B
Sun 09:35:18 AM 32.0510 34.3980 97° East 223 257 2,800  Level FlightAware ADS-B
Sun 09:35:45 AM 32.0480 34.4260 97° East 223 257 2,800  Level FlightAware ADS-B
Sun 09:36:03 AM 32.0460 34.4540 95° East 224 258 2,800  Level FlightAware ADS-B
Sun 09:36:14 AM 32.0450 34.4620 98° East 222 255 2,800 167 Level FlightAware ADS-B
Sun 09:36:39 AM 32.0420 34.4980 96° East 221 254 2,900 136 Climbing FlightAware ADS-B
Sun 09:36:58 AM 32.0390 34.5170 101° East 225 259 2,900  Level FlightAware ADS-B
Sun 09:37:08 AM 32.0340 34.5300 114° Southeast 230 265 2,900 -200 Level FlightAware ADS-B
Sun 09:37:28 AM 32.0250 34.5520 116° Southeast 226 260 2,800 -200 Descending FlightAware ADS-B
Sun 09:37:38 AM 32.0210 34.5620 115° Southeast 226 260 2,800  Level FlightAware ADS-B
Sun 09:37:58 AM 32.0120 34.5830 117° Southeast 229 264 2,800 109 Level FlightAware ADS-B
Sun 09:38:33 AM 31.9970 34.6200 116° Southeast 225 259 2,900 120 Climbing FlightAware ADS-B
Sun 09:38:48 AM 31.9880 34.6390 119° Southeast 204 235 2,900  Level FlightAware ADS-B
Sun 09:39:08 AM 31.9820 34.6580 110° East 202 232 2,900 -130 Level FlightAware ADS-B
Sun 09:39:34 AM 31.9870 34.6870 79° East 187 215 2,800 -667 Descending FlightAware ADS-B
Sun 09:40:20 AM 31.9930 34.7320 81° East 180 207 2,100 -750 Descending FlightAware ADS-B
Sun 09:40:46 AM 31.9960 34.7490 78° East 172 198 1,900 -837 Descending FlightAware ADS-B
Sun 09:41:03 AM 31.9990 34.7710 81° East 161 185 1,500 -1,050 Descending FlightAware ADS-B
Sun 09:41:26 AM 32.0020 34.7880 78° East 160 184 1,200 -933 Descending FlightAware ADS-B
Sun 09:41:48 AM 32.0000 34.7760 259° West 162 186 800 -938 Descending FlightAware ADS-B
Sun 09:41:58 AM 32.0060 34.8190 81° East 159 183 700 -167 Descending FlightAware ADS-B
Sun 09:42:24 AM 32.0090 34.8380 79° East 159 183 700 -667 Level FlightAware ADS-B
Sun 09:42:43 AM 32.0110 34.8510 80° East 158 182 200 -1,579 Descending FlightAware ADS-B
Sun 09:43:01 AM 32.0140 34.8690 79° East 140 161 -667 Descending FlightAware ADS-B
Sun 09:43:28 AM 32.0290 34.8720 10° North 140 161  Level FlightAware ADS-B

Login

Don't have an account? Register now (free) for customized features, flight alerts, and more!